<?xml version="1.0" encoding="UTF-8" standalone="no" ?>
<gpx xmlns="http://www.topografix.com/GPX/1/1" xmlns:xsi="http://www.w3.org/2001/XMLSchema-instance" xsi:schemaLocation="http://www.topografix.com/GPX/1/1 http://www.topografix.com/GPX/1/1/gpx.xsd" version="1.1" creator="VisuGPX - https://www.visugpx.com">
  <metadata>
    <name>Rive gauche du doubs</name>
  </metadata>
  <trk>
    <name><![CDATA[Les singles entre Biaufond et le Châtelot - 26726 - UtagawaVTT.com]]></name>
    <trkseg>
      <trkpt lat="47.16443" lon="6.85647">
        <ele>616</ele>
        <time>2020-06-21T19:22:59Z</time>
      </trkpt>
      <trkpt lat="47.16454" lon="6.8573">
        <ele>613</ele>
        <time>2020-06-21T19:23:12Z</time>
      </trkpt>
      <trkpt lat="47.16452" lon="6.85748">
        <ele>612</ele>
        <time>2020-06-21T19:23:15Z</time>
      </trkpt>
      <trkpt lat="47.16438" lon="6.85785">
        <ele>610</ele>
        <time>2020-06-21T19:23:22Z</time>
      </trkpt>
      <trkpt lat="47.16396" lon="6.85846">
        <ele>618</ele>
        <time>2020-06-21T19:23:36Z</time>
      </trkpt>
      <trkpt lat="47.16386" lon="6.85851">
        <ele>624</ele>
        <time>2020-06-21T19:23:38Z</time>
      </trkpt>
      <trkpt lat="47.16367" lon="6.85848">
        <ele>629</ele>
        <time>2020-06-21T19:23:43Z</time>
      </trkpt>
      <trkpt lat="47.16315" lon="6.85757">
        <ele>635</ele>
        <time>2020-06-21T19:24:02Z</time>
      </trkpt>
      <trkpt lat="47.16278" lon="6.8572">
        <ele>641</ele>
        <time>2020-06-21T19:24:12Z</time>
      </trkpt>
      <trkpt lat="47.16234" lon="6.85662">
        <ele>637</ele>
        <time>2020-06-21T19:24:26Z</time>
      </trkpt>
      <trkpt lat="47.16179" lon="6.85631">
        <ele>643</ele>
        <time>2020-06-21T19:24:40Z</time>
      </trkpt>
      <trkpt lat="47.16154" lon="6.85612">
        <ele>645</ele>
        <time>2020-06-21T19:24:46Z</time>
      </trkpt>
      <trkpt lat="47.16114" lon="6.85566">
        <ele>648</ele>
        <time>2020-06-21T19:24:58Z</time>
      </trkpt>
      <trkpt lat="47.16091" lon="6.85524">
        <ele>645</ele>
        <time>2020-06-21T19:25:07Z</time>
      </trkpt>
      <trkpt lat="47.16026" lon="6.85424">
        <ele>637</ele>
        <time>2020-06-21T19:25:29Z</time>
      </trkpt>
      <trkpt lat="47.15984" lon="6.85367">
        <ele>639</ele>
        <time>2020-06-21T19:25:42Z</time>
      </trkpt>
      <trkpt lat="47.15899" lon="6.8524">
        <ele>636</ele>
        <time>2020-06-21T19:26:10Z</time>
      </trkpt>
      <trkpt lat="47.15857" lon="6.85185">
        <ele>630</ele>
        <time>2020-06-21T19:26:23Z</time>
      </trkpt>
      <trkpt lat="47.15838" lon="6.85169">
        <ele>626</ele>
        <time>2020-06-21T19:26:28Z</time>
      </trkpt>
      <trkpt lat="47.15777" lon="6.85147">
        <ele>639</ele>
        <time>2020-06-21T19:26:43Z</time>
      </trkpt>
      <trkpt lat="47.15697" lon="6.85093">
        <ele>637</ele>
        <time>2020-06-21T19:27:04Z</time>
      </trkpt>
      <trkpt lat="47.15682" lon="6.85088">
        <ele>636</ele>
        <time>2020-06-21T19:27:07Z</time>
      </trkpt>
      <trkpt lat="47.15652" lon="6.85092">
        <ele>644</ele>
        <time>2020-06-21T19:27:14Z</time>
      </trkpt>
      <trkpt lat="47.15594" lon="6.85061">
        <ele>648</ele>
        <time>2020-06-21T19:27:29Z</time>
      </trkpt>
      <trkpt lat="47.15548" lon="6.85024">
        <ele>651</ele>
        <time>2020-06-21T19:27:41Z</time>
      </trkpt>
      <trkpt lat="47.1553" lon="6.84981">
        <ele>649</ele>
        <time>2020-06-21T19:27:49Z</time>
      </trkpt>
      <trkpt lat="47.15507" lon="6.84889">
        <ele>652</ele>
        <time>2020-06-21T19:28:05Z</time>
      </trkpt>
      <trkpt lat="47.15516" lon="6.84835">
        <ele>651</ele>
        <time>2020-06-21T19:28:13Z</time>
      </trkpt>
      <trkpt lat="47.15501" lon="6.84762">
        <ele>651</ele>
        <time>2020-06-21T19:28:26Z</time>
      </trkpt>
      <trkpt lat="47.15497" lon="6.84724">
        <ele>650</ele>
        <time>2020-06-21T19:28:32Z</time>
      </trkpt>
      <trkpt lat="47.15496" lon="6.84627">
        <ele>643</ele>
        <time>2020-06-21T19:28:47Z</time>
      </trkpt>
      <trkpt lat="47.15498" lon="6.84591">
        <ele>639</ele>
        <time>2020-06-21T19:28:53Z</time>
      </trkpt>
      <trkpt lat="47.15482" lon="6.8448">
        <ele>645</ele>
        <time>2020-06-21T19:29:11Z</time>
      </trkpt>
      <trkpt lat="47.15463" lon="6.84412">
        <ele>649</ele>
        <time>2020-06-21T19:29:22Z</time>
      </trkpt>
      <trkpt lat="47.15456" lon="6.84398">
        <ele>651</ele>
        <time>2020-06-21T19:29:25Z</time>
      </trkpt>
      <trkpt lat="47.15438" lon="6.84374">
        <ele>657</ele>
        <time>2020-06-21T19:29:31Z</time>
      </trkpt>
      <trkpt lat="47.1542" lon="6.84331">
        <ele>653</ele>
        <time>2020-06-21T19:29:39Z</time>
      </trkpt>
      <trkpt lat="47.15405" lon="6.84307">
        <ele>659</ele>
        <time>2020-06-21T19:29:44Z</time>
      </trkpt>
      <trkpt lat="47.15387" lon="6.84268">
        <ele>661</ele>
        <time>2020-06-21T19:29:52Z</time>
      </trkpt>
      <trkpt lat="47.15369" lon="6.84242">
        <ele>666</ele>
        <time>2020-06-21T19:29:57Z</time>
      </trkpt>
      <trkpt lat="47.15347" lon="6.84199">
        <ele>664</ele>
        <time>2020-06-21T19:30:06Z</time>
      </trkpt>
      <trkpt lat="47.15332" lon="6.84178">
        <ele>663</ele>
        <time>2020-06-21T19:30:11Z</time>
      </trkpt>
      <trkpt lat="47.15298" lon="6.8411">
        <ele>659</ele>
        <time>2020-06-21T19:30:24Z</time>
      </trkpt>
      <trkpt lat="47.15249" lon="6.84049">
        <ele>654</ele>
        <time>2020-06-21T19:30:39Z</time>
      </trkpt>
      <trkpt lat="47.15225" lon="6.84036">
        <ele>649</ele>
        <time>2020-06-21T19:30:45Z</time>
      </trkpt>
      <trkpt lat="47.15191" lon="6.84035">
        <ele>650</ele>
        <time>2020-06-21T19:30:53Z</time>
      </trkpt>
      <trkpt lat="47.15179" lon="6.84039">
        <ele>652</ele>
        <time>2020-06-21T19:30:56Z</time>
      </trkpt>
      <trkpt lat="47.15133" lon="6.84084">
        <ele>665</ele>
        <time>2020-06-21T19:31:09Z</time>
      </trkpt>
      <trkpt lat="47.15119" lon="6.84093">
        <ele>667</ele>
        <time>2020-06-21T19:31:13Z</time>
      </trkpt>
      <trkpt lat="47.15113" lon="6.84102">
        <ele>671</ele>
        <time>2020-06-21T19:31:15Z</time>
      </trkpt>
      <trkpt lat="47.15035" lon="6.84126">
        <ele>671</ele>
        <time>2020-06-21T19:31:33Z</time>
      </trkpt>
      <trkpt lat="47.15005" lon="6.8415">
        <ele>678</ele>
        <time>2020-06-21T19:31:41Z</time>
      </trkpt>
      <trkpt lat="47.14984" lon="6.84155">
        <ele>685</ele>
        <time>2020-06-21T19:31:46Z</time>
      </trkpt>
      <trkpt lat="47.1496" lon="6.84153">
        <ele>692</ele>
        <time>2020-06-21T19:31:52Z</time>
      </trkpt>
      <trkpt lat="47.1495" lon="6.84144">
        <ele>691</ele>
        <time>2020-06-21T19:31:54Z</time>
      </trkpt>
      <trkpt lat="47.14944" lon="6.84132">
        <ele>687</ele>
        <time>2020-06-21T19:31:57Z</time>
      </trkpt>
      <trkpt lat="47.14934" lon="6.84122">
        <ele>685</ele>
        <time>2020-06-21T19:32:00Z</time>
      </trkpt>
      <trkpt lat="47.14919" lon="6.84094">
        <ele>676</ele>
        <time>2020-06-21T19:32:05Z</time>
      </trkpt>
      <trkpt lat="47.14901" lon="6.84076">
        <ele>675</ele>
        <time>2020-06-21T19:32:10Z</time>
      </trkpt>
      <trkpt lat="47.14878" lon="6.84074">
        <ele>684</ele>
        <time>2020-06-21T19:32:16Z</time>
      </trkpt>
      <trkpt lat="47.14849" lon="6.84078">
        <ele>697</ele>
        <time>2020-06-21T19:32:23Z</time>
      </trkpt>
      <trkpt lat="47.14843" lon="6.84075">
        <ele>699</ele>
        <time>2020-06-21T19:32:24Z</time>
      </trkpt>
      <trkpt lat="47.14837" lon="6.84063">
        <ele>700</ele>
        <time>2020-06-21T19:32:26Z</time>
      </trkpt>
      <trkpt lat="47.14834" lon="6.84029">
        <ele>697</ele>
        <time>2020-06-21T19:32:32Z</time>
      </trkpt>
      <trkpt lat="47.14839" lon="6.84014">
        <ele>693</ele>
        <time>2020-06-21T19:32:34Z</time>
      </trkpt>
      <trkpt lat="47.1484" lon="6.84">
        <ele>690</ele>
        <time>2020-06-21T19:32:37Z</time>
      </trkpt>
      <trkpt lat="47.14834" lon="6.83956">
        <ele>689</ele>
        <time>2020-06-21T19:32:44Z</time>
      </trkpt>
      <trkpt lat="47.1481" lon="6.8388">
        <ele>694</ele>
        <time>2020-06-21T19:32:57Z</time>
      </trkpt>
      <trkpt lat="47.14793" lon="6.83835">
        <ele>697</ele>
        <time>2020-06-21T19:33:05Z</time>
      </trkpt>
      <trkpt lat="47.14783" lon="6.83768">
        <ele>694</ele>
        <time>2020-06-21T19:33:16Z</time>
      </trkpt>
      <trkpt lat="47.14752" lon="6.837">
        <ele>699</ele>
        <time>2020-06-21T19:33:29Z</time>
      </trkpt>
      <trkpt lat="47.14722" lon="6.83651">
        <ele>706</ele>
        <time>2020-06-21T19:33:40Z</time>
      </trkpt>
      <trkpt lat="47.14703" lon="6.83605">
        <ele>709</ele>
        <time>2020-06-21T19:33:48Z</time>
      </trkpt>
      <trkpt lat="47.147" lon="6.83575">
        <ele>706</ele>
        <time>2020-06-21T19:33:53Z</time>
      </trkpt>
      <trkpt lat="47.14663" lon="6.83494">
        <ele>714</ele>
        <time>2020-06-21T19:34:09Z</time>
      </trkpt>
      <trkpt lat="47.14647" lon="6.8347">
        <ele>723</ele>
        <time>2020-06-21T19:34:14Z</time>
      </trkpt>
      <trkpt lat="47.14639" lon="6.83481">
        <ele>731</ele>
        <time>2020-06-21T19:34:16Z</time>
      </trkpt>
      <trkpt lat="47.14641" lon="6.83498">
        <ele>732</ele>
        <time>2020-06-21T19:34:19Z</time>
      </trkpt>
      <trkpt lat="47.14657" lon="6.83521">
        <ele>723</ele>
        <time>2020-06-21T19:34:24Z</time>
      </trkpt>
      <trkpt lat="47.14674" lon="6.83565">
        <ele>719</ele>
        <time>2020-06-21T19:34:32Z</time>
      </trkpt>
      <trkpt lat="47.14677" lon="6.83595">
        <ele>722</ele>
        <time>2020-06-21T19:34:37Z</time>
      </trkpt>
      <trkpt lat="47.14673" lon="6.83642">
        <ele>732</ele>
        <time>2020-06-21T19:34:45Z</time>
      </trkpt>
      <trkpt lat="47.14676" lon="6.83658">
        <ele>733</ele>
        <time>2020-06-21T19:34:47Z</time>
      </trkpt>
      <trkpt lat="47.14691" lon="6.83701">
        <ele>734</ele>
        <time>2020-06-21T19:34:55Z</time>
      </trkpt>
      <trkpt lat="47.14715" lon="6.83734">
        <ele>727</ele>
        <time>2020-06-21T19:35:03Z</time>
      </trkpt>
      <trkpt lat="47.14729" lon="6.83758">
        <ele>724</ele>
        <time>2020-06-21T19:35:08Z</time>
      </trkpt>
      <trkpt lat="47.14733" lon="6.83773">
        <ele>725</ele>
        <time>2020-06-21T19:35:10Z</time>
      </trkpt>
      <trkpt lat="47.14736" lon="6.8382">
        <ele>732</ele>
        <time>2020-06-21T19:35:18Z</time>
      </trkpt>
      <trkpt lat="47.14734" lon="6.83867">
        <ele>741</ele>
        <time>2020-06-21T19:35:25Z</time>
      </trkpt>
      <trkpt lat="47.14755" lon="6.83962">
        <ele>740</ele>
        <time>2020-06-21T19:35:41Z</time>
      </trkpt>
      <trkpt lat="47.14756" lon="6.83979">
        <ele>740</ele>
        <time>2020-06-21T19:35:44Z</time>
      </trkpt>
      <trkpt lat="47.14737" lon="6.84038">
        <ele>748</ele>
        <time>2020-06-21T19:35:54Z</time>
      </trkpt>
      <trkpt lat="47.14729" lon="6.84087">
        <ele>749</ele>
        <time>2020-06-21T19:36:02Z</time>
      </trkpt>
      <trkpt lat="47.14717" lon="6.84134">
        <ele>756</ele>
        <time>2020-06-21T19:36:10Z</time>
      </trkpt>
      <trkpt lat="47.14719" lon="6.84167">
        <ele>757</ele>
        <time>2020-06-21T19:36:16Z</time>
      </trkpt>
      <trkpt lat="47.14722" lon="6.84181">
        <ele>759</ele>
        <time>2020-06-21T19:36:18Z</time>
      </trkpt>
      <trkpt lat="47.1473" lon="6.84194">
        <ele>760</ele>
        <time>2020-06-21T19:36:21Z</time>
      </trkpt>
      <trkpt lat="47.14751" lon="6.84208">
        <ele>758</ele>
        <time>2020-06-21T19:36:26Z</time>
      </trkpt>
      <trkpt lat="47.14763" lon="6.8421">
        <ele>757</ele>
        <time>2020-06-21T19:36:29Z</time>
      </trkpt>
      <trkpt lat="47.14777" lon="6.84206">
        <ele>754</ele>
        <time>2020-06-21T19:36:32Z</time>
      </trkpt>
      <trkpt lat="47.14799" lon="6.84211">
        <ele>753</ele>
        <time>2020-06-21T19:36:37Z</time>
      </trkpt>
      <trkpt lat="47.14802" lon="6.84226">
        <ele>758</ele>
        <time>2020-06-21T19:36:40Z</time>
      </trkpt>
      <trkpt lat="47.14793" lon="6.84231">
        <ele>760</ele>
        <time>2020-06-21T19:36:42Z</time>
      </trkpt>
      <trkpt lat="47.14757" lon="6.84234">
        <ele>765</ele>
        <time>2020-06-21T19:36:51Z</time>
      </trkpt>
      <trkpt lat="47.14729" lon="6.84224">
        <ele>768</ele>
        <time>2020-06-21T19:36:57Z</time>
      </trkpt>
      <trkpt lat="47.14699" lon="6.84199">
        <ele>770</ele>
        <time>2020-06-21T19:37:05Z</time>
      </trkpt>
      <trkpt lat="47.14692" lon="6.84187">
        <ele>769</ele>
        <time>2020-06-21T19:37:08Z</time>
      </trkpt>
      <trkpt lat="47.14667" lon="6.84112">
        <ele>775</ele>
        <time>2020-06-21T19:37:21Z</time>
      </trkpt>
      <trkpt lat="47.1467" lon="6.84064">
        <ele>777</ele>
        <time>2020-06-21T19:37:29Z</time>
      </trkpt>
      <trkpt lat="47.14668" lon="6.84049">
        <ele>779</ele>
        <time>2020-06-21T19:37:31Z</time>
      </trkpt>
      <trkpt lat="47.14658" lon="6.84047">
        <ele>784</ele>
        <time>2020-06-21T19:37:34Z</time>
      </trkpt>
      <trkpt lat="47.1465" lon="6.84061">
        <ele>786</ele>
        <time>2020-06-21T19:37:36Z</time>
      </trkpt>
      <trkpt lat="47.14645" lon="6.84132">
        <ele>785</ele>
        <time>2020-06-21T19:37:48Z</time>
      </trkpt>
      <trkpt lat="47.1465" lon="6.84198">
        <ele>785</ele>
        <time>2020-06-21T19:37:58Z</time>
      </trkpt>
      <trkpt lat="47.14656" lon="6.84227">
        <ele>787</ele>
        <time>2020-06-21T19:38:03Z</time>
      </trkpt>
      <trkpt lat="47.14676" lon="6.84266">
        <ele>789</ele>
        <time>2020-06-21T19:38:11Z</time>
      </trkpt>
      <trkpt lat="47.14685" lon="6.84274">
        <ele>789</ele>
        <time>2020-06-21T19:38:13Z</time>
      </trkpt>
      <trkpt lat="47.14723" lon="6.8429">
        <ele>786</ele>
        <time>2020-06-21T19:38:23Z</time>
      </trkpt>
      <trkpt lat="47.14807" lon="6.84343">
        <ele>795</ele>
        <time>2020-06-21T19:38:44Z</time>
      </trkpt>
      <trkpt lat="47.14892" lon="6.84388">
        <ele>807</ele>
        <time>2020-06-21T19:39:05Z</time>
      </trkpt>
      <trkpt lat="47.14903" lon="6.84389">
        <ele>807</ele>
        <time>2020-06-21T19:39:08Z</time>
      </trkpt>
      <trkpt lat="47.14926" lon="6.84385">
        <ele>804</ele>
        <time>2020-06-21T19:39:13Z</time>
      </trkpt>
      <trkpt lat="47.14936" lon="6.84392">
        <ele>808</ele>
        <time>2020-06-21T19:39:16Z</time>
      </trkpt>
      <trkpt lat="47.14926" lon="6.84403">
        <ele>812</ele>
        <time>2020-06-21T19:39:18Z</time>
      </trkpt>
      <trkpt lat="47.14914" lon="6.84406">
        <ele>813</ele>
        <time>2020-06-21T19:39:21Z</time>
      </trkpt>
      <trkpt lat="47.14838" lon="6.84394">
        <ele>812</ele>
        <time>2020-06-21T19:39:39Z</time>
      </trkpt>
      <trkpt lat="47.14748" lon="6.84403">
        <ele>809</ele>
        <time>2020-06-21T19:40:00Z</time>
      </trkpt>
      <trkpt lat="47.14726" lon="6.8441">
        <ele>814</ele>
        <time>2020-06-21T19:40:06Z</time>
      </trkpt>
      <trkpt lat="47.14702" lon="6.84405">
        <ele>816</ele>
        <time>2020-06-21T19:40:11Z</time>
      </trkpt>
      <trkpt lat="47.14681" lon="6.84392">
        <ele>816</ele>
        <time>2020-06-21T19:40:16Z</time>
      </trkpt>
      <trkpt lat="47.1465" lon="6.84367">
        <ele>817</ele>
        <time>2020-06-21T19:40:25Z</time>
      </trkpt>
      <trkpt lat="47.14535" lon="6.84256">
        <ele>837</ele>
        <time>2020-06-21T19:40:57Z</time>
      </trkpt>
      <trkpt lat="47.14531" lon="6.84243">
        <ele>838</ele>
        <time>2020-06-21T19:40:59Z</time>
      </trkpt>
      <trkpt lat="47.14526" lon="6.84197">
        <ele>841</ele>
        <time>2020-06-21T19:41:07Z</time>
      </trkpt>
      <trkpt lat="47.14528" lon="6.84159">
        <ele>840</ele>
        <time>2020-06-21T19:41:13Z</time>
      </trkpt>
      <trkpt lat="47.14525" lon="6.84112">
        <ele>841</ele>
        <time>2020-06-21T19:41:20Z</time>
      </trkpt>
      <trkpt lat="47.14511" lon="6.84069">
        <ele>845</ele>
        <time>2020-06-21T19:41:28Z</time>
      </trkpt>
      <trkpt lat="47.14482" lon="6.84">
        <ele>850</ele>
        <time>2020-06-21T19:41:41Z</time>
      </trkpt>
      <trkpt lat="47.1444" lon="6.83948">
        <ele>862</ele>
        <time>2020-06-21T19:41:53Z</time>
      </trkpt>
      <trkpt lat="47.14435" lon="6.83935">
        <ele>861</ele>
        <time>2020-06-21T19:41:56Z</time>
      </trkpt>
      <trkpt lat="47.14419" lon="6.83911">
        <ele>864</ele>
        <time>2020-06-21T19:42:01Z</time>
      </trkpt>
      <trkpt lat="47.14391" lon="6.83858">
        <ele>873</ele>
        <time>2020-06-21T19:42:12Z</time>
      </trkpt>
      <trkpt lat="47.14388" lon="6.83841">
        <ele>873</ele>
        <time>2020-06-21T19:42:15Z</time>
      </trkpt>
      <trkpt lat="47.14389" lon="6.83788">
        <ele>873</ele>
        <time>2020-06-21T19:42:23Z</time>
      </trkpt>
      <trkpt lat="47.14406" lon="6.83725">
        <ele>869</ele>
        <time>2020-06-21T19:42:34Z</time>
      </trkpt>
      <trkpt lat="47.14436" lon="6.83669">
        <ele>866</ele>
        <time>2020-06-21T19:42:45Z</time>
      </trkpt>
      <trkpt lat="47.14444" lon="6.83639">
        <ele>865</ele>
        <time>2020-06-21T19:42:50Z</time>
      </trkpt>
      <trkpt lat="47.14443" lon="6.83592">
        <ele>869</ele>
        <time>2020-06-21T19:42:58Z</time>
      </trkpt>
      <trkpt lat="47.14427" lon="6.83529">
        <ele>870</ele>
        <time>2020-06-21T19:43:08Z</time>
      </trkpt>
      <trkpt lat="47.14384" lon="6.83477">
        <ele>880</ele>
        <time>2020-06-21T19:43:21Z</time>
      </trkpt>
      <trkpt lat="47.14339" lon="6.83431">
        <ele>890</ele>
        <time>2020-06-21T19:43:34Z</time>
      </trkpt>
      <trkpt lat="47.14293" lon="6.83362">
        <ele>900</ele>
        <time>2020-06-21T19:43:49Z</time>
      </trkpt>
      <trkpt lat="47.1429" lon="6.83346">
        <ele>899</ele>
        <time>2020-06-21T19:43:52Z</time>
      </trkpt>
      <trkpt lat="47.14277" lon="6.83317">
        <ele>903</ele>
        <time>2020-06-21T19:43:58Z</time>
      </trkpt>
      <trkpt lat="47.14275" lon="6.8325">
        <ele>898</ele>
        <time>2020-06-21T19:44:08Z</time>
      </trkpt>
      <trkpt lat="47.14269" lon="6.83196">
        <ele>897</ele>
        <time>2020-06-21T19:44:17Z</time>
      </trkpt>
      <trkpt lat="47.14269" lon="6.83161">
        <ele>894</ele>
        <time>2020-06-21T19:44:23Z</time>
      </trkpt>
      <trkpt lat="47.14265" lon="6.83146">
        <ele>893</ele>
        <time>2020-06-21T19:44:25Z</time>
      </trkpt>
      <trkpt lat="47.14251" lon="6.83122">
        <ele>893</ele>
        <time>2020-06-21T19:44:30Z</time>
      </trkpt>
      <trkpt lat="47.14212" lon="6.83093">
        <ele>900</ele>
        <time>2020-06-21T19:44:40Z</time>
      </trkpt>
      <trkpt lat="47.14156" lon="6.83045">
        <ele>900</ele>
        <time>2020-06-21T19:44:55Z</time>
      </trkpt>
      <trkpt lat="47.14126" lon="6.8303">
        <ele>898</ele>
        <time>2020-06-21T19:45:03Z</time>
      </trkpt>
      <trkpt lat="47.14105" lon="6.83026">
        <ele>900</ele>
        <time>2020-06-21T19:45:08Z</time>
      </trkpt>
      <trkpt lat="47.14057" lon="6.83029">
        <ele>906</ele>
        <time>2020-06-21T19:45:19Z</time>
      </trkpt>
      <trkpt lat="47.13989" lon="6.83042">
        <ele>915</ele>
        <time>2020-06-21T19:45:35Z</time>
      </trkpt>
      <trkpt lat="47.13965" lon="6.8304">
        <ele>914</ele>
        <time>2020-06-21T19:45:41Z</time>
      </trkpt>
      <trkpt lat="47.13883" lon="6.83007">
        <ele>914</ele>
        <time>2020-06-21T19:46:00Z</time>
      </trkpt>
      <trkpt lat="47.13853" lon="6.8299">
        <ele>918</ele>
        <time>2020-06-21T19:46:08Z</time>
      </trkpt>
      <trkpt lat="47.13812" lon="6.82977">
        <ele>926</ele>
        <time>2020-06-21T19:46:18Z</time>
      </trkpt>
      <trkpt lat="47.13804" lon="6.8297">
        <ele>927</ele>
        <time>2020-06-21T19:46:20Z</time>
      </trkpt>
      <trkpt lat="47.13751" lon="6.82949">
        <ele>934</ele>
        <time>2020-06-21T19:46:33Z</time>
      </trkpt>
      <trkpt lat="47.13684" lon="6.82917">
        <ele>947</ele>
        <time>2020-06-21T19:46:49Z</time>
      </trkpt>
      <trkpt lat="47.13676" lon="6.82908">
        <ele>948</ele>
        <time>2020-06-21T19:46:52Z</time>
      </trkpt>
      <trkpt lat="47.13659" lon="6.82881">
        <ele>951</ele>
        <time>2020-06-21T19:46:57Z</time>
      </trkpt>
      <trkpt lat="47.13632" lon="6.82808">
        <ele>959</ele>
        <time>2020-06-21T19:47:11Z</time>
      </trkpt>
      <trkpt lat="47.13619" lon="6.82747">
        <ele>965</ele>
        <time>2020-06-21T19:47:21Z</time>
      </trkpt>
      <trkpt lat="47.13622" lon="6.82716">
        <ele>961</ele>
        <time>2020-06-21T19:47:26Z</time>
      </trkpt>
      <trkpt lat="47.1362" lon="6.82603">
        <ele>957</ele>
        <time>2020-06-21T19:47:44Z</time>
      </trkpt>
      <trkpt lat="47.13622" lon="6.82586">
        <ele>956</ele>
        <time>2020-06-21T19:47:46Z</time>
      </trkpt>
      <trkpt lat="47.13654" lon="6.82516">
        <ele>947</ele>
        <time>2020-06-21T19:48:00Z</time>
      </trkpt>
      <trkpt lat="47.13656" lon="6.82501">
        <ele>947</ele>
        <time>2020-06-21T19:48:02Z</time>
      </trkpt>
      <trkpt lat="47.13655" lon="6.82485">
        <ele>946</ele>
        <time>2020-06-21T19:48:05Z</time>
      </trkpt>
      <trkpt lat="47.1365" lon="6.82468">
        <ele>945</ele>
        <time>2020-06-21T19:48:08Z</time>
      </trkpt>
      <trkpt lat="47.13627" lon="6.82433">
        <ele>947</ele>
        <time>2020-06-21T19:48:16Z</time>
      </trkpt>
      <trkpt lat="47.136" lon="6.824">
        <ele>949</ele>
        <time>2020-06-21T19:48:24Z</time>
      </trkpt>
      <trkpt lat="47.13576" lon="6.82363">
        <ele>952</ele>
        <time>2020-06-21T19:48:32Z</time>
      </trkpt>
      <trkpt lat="47.1354" lon="6.8232">
        <ele>950</ele>
        <time>2020-06-21T19:48:43Z</time>
      </trkpt>
      <trkpt lat="47.1353" lon="6.82314">
        <ele>949</ele>
        <time>2020-06-21T19:48:45Z</time>
      </trkpt>
      <trkpt lat="47.13509" lon="6.82315">
        <ele>951</ele>
        <time>2020-06-21T19:48:50Z</time>
      </trkpt>
      <trkpt lat="47.13498" lon="6.82319">
        <ele>953</ele>
        <time>2020-06-21T19:48:53Z</time>
      </trkpt>
      <trkpt lat="47.13482" lon="6.82336">
        <ele>952</ele>
        <time>2020-06-21T19:48:57Z</time>
      </trkpt>
      <trkpt lat="47.13461" lon="6.82373">
        <ele>955</ele>
        <time>2020-06-21T19:49:05Z</time>
      </trkpt>
      <trkpt lat="47.13388" lon="6.82454">
        <ele>968</ele>
        <time>2020-06-21T19:49:26Z</time>
      </trkpt>
      <trkpt lat="47.13354" lon="6.82481">
        <ele>972</ele>
        <time>2020-06-21T19:49:35Z</time>
      </trkpt>
      <trkpt lat="47.13316" lon="6.82507">
        <ele>977</ele>
        <time>2020-06-21T19:49:45Z</time>
      </trkpt>
      <trkpt lat="47.13276" lon="6.82525">
        <ele>979</ele>
        <time>2020-06-21T19:49:55Z</time>
      </trkpt>
      <trkpt lat="47.13243" lon="6.82528">
        <ele>977</ele>
        <time>2020-06-21T19:50:03Z</time>
      </trkpt>
      <trkpt lat="47.13214" lon="6.82551">
        <ele>986</ele>
        <time>2020-06-21T19:50:10Z</time>
      </trkpt>
      <trkpt lat="47.13176" lon="6.82612">
        <ele>1000</ele>
        <time>2020-06-21T19:50:24Z</time>
      </trkpt>
      <trkpt lat="47.13164" lon="6.82614">
        <ele>1001</ele>
        <time>2020-06-21T19:50:26Z</time>
      </trkpt>
      <trkpt lat="47.13152" lon="6.8261">
        <ele>1001</ele>
        <time>2020-06-21T19:50:29Z</time>
      </trkpt>
      <trkpt lat="47.13142" lon="6.82601">
        <ele>1000</ele>
        <time>2020-06-21T19:50:32Z</time>
      </trkpt>
      <trkpt lat="47.13122" lon="6.82564">
        <ele>997</ele>
        <time>2020-06-21T19:50:39Z</time>
      </trkpt>
      <trkpt lat="47.13118" lon="6.82547">
        <ele>995</ele>
        <time>2020-06-21T19:50:42Z</time>
      </trkpt>
      <trkpt lat="47.13102" lon="6.82507">
        <ele>993</ele>
        <time>2020-06-21T19:50:50Z</time>
      </trkpt>
      <trkpt lat="47.13089" lon="6.82484">
        <ele>992</ele>
        <time>2020-06-21T19:50:54Z</time>
      </trkpt>
      <trkpt lat="47.13073" lon="6.82464">
        <ele>990</ele>
        <time>2020-06-21T19:50:59Z</time>
      </trkpt>
      <trkpt lat="47.13042" lon="6.82443">
        <ele>988</ele>
        <time>2020-06-21T19:51:07Z</time>
      </trkpt>
      <trkpt lat="47.1302" lon="6.82439">
        <ele>990</ele>
        <time>2020-06-21T19:51:12Z</time>
      </trkpt>
      <trkpt lat="47.12999" lon="6.82448">
        <ele>994</ele>
        <time>2020-06-21T19:51:18Z</time>
      </trkpt>
      <trkpt lat="47.13001" lon="6.82476">
        <ele>999</ele>
        <time>2020-06-21T19:51:22Z</time>
      </trkpt>
      <trkpt lat="47.13016" lon="6.82543">
        <ele>1005</ele>
        <time>2020-06-21T19:51:33Z</time>
      </trkpt>
      <trkpt lat="47.13015" lon="6.82556">
        <ele>1006</ele>
        <time>2020-06-21T19:51:35Z</time>
      </trkpt>
      <trkpt lat="47.13006" lon="6.82582">
        <ele>1008</ele>
        <time>2020-06-21T19:51:40Z</time>
      </trkpt>
      <trkpt lat="47.12997" lon="6.82593">
        <ele>1009</ele>
        <time>2020-06-21T19:51:43Z</time>
      </trkpt>
      <trkpt lat="47.12927" lon="6.82612">
        <ele>1017</ele>
        <time>2020-06-21T19:51:59Z</time>
      </trkpt>
      <trkpt lat="47.12882" lon="6.82616">
        <ele>1027</ele>
        <time>2020-06-21T19:52:10Z</time>
      </trkpt>
      <trkpt lat="47.1286" lon="6.82608">
        <ele>1031</ele>
        <time>2020-06-21T19:52:15Z</time>
      </trkpt>
      <trkpt lat="47.12837" lon="6.82595">
        <ele>1035</ele>
        <time>2020-06-21T19:52:21Z</time>
      </trkpt>
      <trkpt lat="47.1281" lon="6.82562">
        <ele>1036</ele>
        <time>2020-06-21T19:52:29Z</time>
      </trkpt>
      <trkpt lat="47.12763" lon="6.82491">
        <ele>1036</ele>
        <time>2020-06-21T19:52:45Z</time>
      </trkpt>
      <trkpt lat="47.12734" lon="6.82466">
        <ele>1038</ele>
        <time>2020-06-21T19:52:53Z</time>
      </trkpt>
      <trkpt lat="47.1267" lon="6.82436">
        <ele>1041</ele>
        <time>2020-06-21T19:53:08Z</time>
      </trkpt>
      <trkpt lat="47.12652" lon="6.82421">
        <ele>1041</ele>
        <time>2020-06-21T19:53:13Z</time>
      </trkpt>
      <trkpt lat="47.12626" lon="6.82389">
        <ele>1040</ele>
        <time>2020-06-21T19:53:21Z</time>
      </trkpt>
      <trkpt lat="47.12616" lon="6.82385">
        <ele>1041</ele>
        <time>2020-06-21T19:53:24Z</time>
      </trkpt>
      <trkpt lat="47.12607" lon="6.82388">
        <ele>1041</ele>
        <time>2020-06-21T19:53:26Z</time>
      </trkpt>
      <trkpt lat="47.12599" lon="6.82394">
        <ele>1042</ele>
        <time>2020-06-21T19:53:28Z</time>
      </trkpt>
      <trkpt lat="47.12593" lon="6.82407">
        <ele>1042</ele>
        <time>2020-06-21T19:53:30Z</time>
      </trkpt>
      <trkpt lat="47.12592" lon="6.82429">
        <ele>1043</ele>
        <time>2020-06-21T19:53:34Z</time>
      </trkpt>
      <trkpt lat="47.12597" lon="6.82457">
        <ele>1044</ele>
        <time>2020-06-21T19:53:38Z</time>
      </trkpt>
      <trkpt lat="47.12623" lon="6.82489">
        <ele>1045</ele>
        <time>2020-06-21T19:53:46Z</time>
      </trkpt>
      <trkpt lat="47.12635" lon="6.82522">
        <ele>1048</ele>
        <time>2020-06-21T19:53:52Z</time>
      </trkpt>
      <trkpt lat="47.12635" lon="6.82542">
        <ele>1051</ele>
        <time>2020-06-21T19:53:55Z</time>
      </trkpt>
      <trkpt lat="47.12629" lon="6.8257">
        <ele>1054</ele>
        <time>2020-06-21T19:54:00Z</time>
      </trkpt>
      <trkpt lat="47.12623" lon="6.82584">
        <ele>1056</ele>
        <time>2020-06-21T19:54:03Z</time>
      </trkpt>
      <trkpt lat="47.12608" lon="6.82604">
        <ele>1057</ele>
        <time>2020-06-21T19:54:07Z</time>
      </trkpt>
      <trkpt lat="47.12589" lon="6.82645">
        <ele>1059</ele>
        <time>2020-06-21T19:54:15Z</time>
      </trkpt>
      <trkpt lat="47.12586" lon="6.82679">
        <ele>1058</ele>
        <time>2020-06-21T19:54:21Z</time>
      </trkpt>
      <trkpt lat="47.12578" lon="6.82721">
        <ele>1056</ele>
        <time>2020-06-21T19:54:28Z</time>
      </trkpt>
      <trkpt lat="47.1257" lon="6.82734">
        <ele>1055</ele>
        <time>2020-06-21T19:54:31Z</time>
      </trkpt>
      <trkpt lat="47.1256" lon="6.82744">
        <ele>1054</ele>
        <time>2020-06-21T19:54:33Z</time>
      </trkpt>
      <trkpt lat="47.12555" lon="6.82743">
        <ele>1054</ele>
        <time>2020-06-21T19:54:35Z</time>
      </trkpt>
      <trkpt lat="47.12547" lon="6.82736">
        <ele>1054</ele>
        <time>2020-06-21T19:54:37Z</time>
      </trkpt>
      <trkpt lat="47.12516" lon="6.82657">
        <ele>1053</ele>
        <time>2020-06-21T19:54:51Z</time>
      </trkpt>
      <trkpt lat="47.12499" lon="6.82592">
        <ele>1052</ele>
        <time>2020-06-21T19:55:02Z</time>
      </trkpt>
      <trkpt lat="47.12469" lon="6.82444">
        <ele>1055</ele>
        <time>2020-06-21T19:55:27Z</time>
      </trkpt>
      <trkpt lat="47.12463" lon="6.82377">
        <ele>1056</ele>
        <time>2020-06-21T19:55:38Z</time>
      </trkpt>
      <trkpt lat="47.12466" lon="6.82331">
        <ele>1055</ele>
        <time>2020-06-21T19:55:45Z</time>
      </trkpt>
      <trkpt lat="47.12457" lon="6.82281">
        <ele>1049</ele>
        <time>2020-06-21T19:55:53Z</time>
      </trkpt>
      <trkpt lat="47.12441" lon="6.82239">
        <ele>1046</ele>
        <time>2020-06-21T19:56:01Z</time>
      </trkpt>
      <trkpt lat="47.12411" lon="6.82189">
        <ele>1044</ele>
        <time>2020-06-21T19:56:11Z</time>
      </trkpt>
      <trkpt lat="47.124" lon="6.8216">
        <ele>1044</ele>
        <time>2020-06-21T19:56:17Z</time>
      </trkpt>
      <trkpt lat="47.12389" lon="6.82118">
        <ele>1044</ele>
        <time>2020-06-21T19:56:24Z</time>
      </trkpt>
      <trkpt lat="47.12382" lon="6.82106">
        <ele>1044</ele>
        <time>2020-06-21T19:56:26Z</time>
      </trkpt>
      <trkpt lat="47.12356" lon="6.82128">
        <ele>1048</ele>
        <time>2020-06-21T19:56:33Z</time>
      </trkpt>
      <trkpt lat="47.12297" lon="6.82158">
        <ele>1051</ele>
        <time>2020-06-21T19:56:48Z</time>
      </trkpt>
      <trkpt lat="47.12277" lon="6.8216">
        <ele>1052</ele>
        <time>2020-06-21T19:56:53Z</time>
      </trkpt>
      <trkpt lat="47.12209" lon="6.8214">
        <ele>1062</ele>
        <time>2020-06-21T19:57:09Z</time>
      </trkpt>
      <trkpt lat="47.12157" lon="6.82121">
        <ele>1072</ele>
        <time>2020-06-21T19:57:21Z</time>
      </trkpt>
      <trkpt lat="47.12115" lon="6.82112">
        <ele>1077</ele>
        <time>2020-06-21T19:57:31Z</time>
      </trkpt>
      <trkpt lat="47.12073" lon="6.82096">
        <ele>1081</ele>
        <time>2020-06-21T19:57:41Z</time>
      </trkpt>
      <trkpt lat="47.12064" lon="6.82088">
        <ele>1082</ele>
        <time>2020-06-21T19:57:44Z</time>
      </trkpt>
      <trkpt lat="47.1207" lon="6.82074">
        <ele>1083</ele>
        <time>2020-06-21T19:57:46Z</time>
      </trkpt>
      <trkpt lat="47.12103" lon="6.82034">
        <ele>1085</ele>
        <time>2020-06-21T19:57:56Z</time>
      </trkpt>
      <trkpt lat="47.12106" lon="6.82019">
        <ele>1086</ele>
        <time>2020-06-21T19:57:59Z</time>
      </trkpt>
      <trkpt lat="47.12104" lon="6.82003">
        <ele>1088</ele>
        <time>2020-06-21T19:58:01Z</time>
      </trkpt>
      <trkpt lat="47.12092" lon="6.81978">
        <ele>1089</ele>
        <time>2020-06-21T19:58:06Z</time>
      </trkpt>
      <trkpt lat="47.12077" lon="6.81956">
        <ele>1091</ele>
        <time>2020-06-21T19:58:11Z</time>
      </trkpt>
      <trkpt lat="47.12065" lon="6.81929">
        <ele>1093</ele>
        <time>2020-06-21T19:58:16Z</time>
      </trkpt>
      <trkpt lat="47.12065" lon="6.81915">
        <ele>1093</ele>
        <time>2020-06-21T19:58:19Z</time>
      </trkpt>
      <trkpt lat="47.1206" lon="6.819">
        <ele>1094</ele>
        <time>2020-06-21T19:58:21Z</time>
      </trkpt>
      <trkpt lat="47.12039" lon="6.81863">
        <ele>1097</ele>
        <time>2020-06-21T19:58:29Z</time>
      </trkpt>
      <trkpt lat="47.1203" lon="6.81854">
        <ele>1098</ele>
        <time>2020-06-21T19:58:31Z</time>
      </trkpt>
      <trkpt lat="47.11969" lon="6.8165">
        <ele>1107</ele>
        <time>2020-06-21T19:59:07Z</time>
      </trkpt>
      <trkpt lat="47.11964" lon="6.81624">
        <ele>1108</ele>
        <time>2020-06-21T19:59:11Z</time>
      </trkpt>
      <trkpt lat="47.11957" lon="6.81611">
        <ele>1110</ele>
        <time>2020-06-21T19:59:14Z</time>
      </trkpt>
      <trkpt lat="47.11932" lon="6.8158">
        <ele>1117</ele>
        <time>2020-06-21T19:59:21Z</time>
      </trkpt>
      <trkpt lat="47.11911" lon="6.81545">
        <ele>1121</ele>
        <time>2020-06-21T19:59:29Z</time>
      </trkpt>
      <trkpt lat="47.11905" lon="6.8153">
        <ele>1122</ele>
        <time>2020-06-21T19:59:32Z</time>
      </trkpt>
      <trkpt lat="47.11882" lon="6.81498">
        <ele>1126</ele>
        <time>2020-06-21T19:59:39Z</time>
      </trkpt>
      <trkpt lat="47.11857" lon="6.8145">
        <ele>1127</ele>
        <time>2020-06-21T19:59:49Z</time>
      </trkpt>
      <trkpt lat="47.11814" lon="6.81401">
        <ele>1131</ele>
        <time>2020-06-21T20:00:01Z</time>
      </trkpt>
      <trkpt lat="47.11736" lon="6.81293">
        <ele>1138</ele>
        <time>2020-06-21T20:00:26Z</time>
      </trkpt>
      <trkpt lat="47.11707" lon="6.81262">
        <ele>1140</ele>
        <time>2020-06-21T20:00:35Z</time>
      </trkpt>
      <trkpt lat="47.11691" lon="6.81146">
        <ele>1138</ele>
        <time>2020-06-21T20:00:54Z</time>
      </trkpt>
      <trkpt lat="47.11663" lon="6.81061">
        <ele>1137</ele>
        <time>2020-06-21T20:01:09Z</time>
      </trkpt>
      <trkpt lat="47.11643" lon="6.81021">
        <ele>1135</ele>
        <time>2020-06-21T20:01:16Z</time>
      </trkpt>
      <trkpt lat="47.11635" lon="6.8101">
        <ele>1135</ele>
        <time>2020-06-21T20:01:19Z</time>
      </trkpt>
      <trkpt lat="47.11612" lon="6.81001">
        <ele>1136</ele>
        <time>2020-06-21T20:01:25Z</time>
      </trkpt>
      <trkpt lat="47.11591" lon="6.81017">
        <ele>1138</ele>
        <time>2020-06-21T20:01:30Z</time>
      </trkpt>
      <trkpt lat="47.11579" lon="6.81019">
        <ele>1138</ele>
        <time>2020-06-21T20:01:33Z</time>
      </trkpt>
      <trkpt lat="47.11557" lon="6.81004">
        <ele>1138</ele>
        <time>2020-06-21T20:01:39Z</time>
      </trkpt>
      <trkpt lat="47.11526" lon="6.80975">
        <ele>1138</ele>
        <time>2020-06-21T20:01:47Z</time>
      </trkpt>
      <trkpt lat="47.11416" lon="6.80826">
        <ele>1139</ele>
        <time>2020-06-21T20:02:22Z</time>
      </trkpt>
      <trkpt lat="47.11398" lon="6.80795">
        <ele>1141</ele>
        <time>2020-06-21T20:02:29Z</time>
      </trkpt>
      <trkpt lat="47.11378" lon="6.80711">
        <ele>1145</ele>
        <time>2020-06-21T20:02:43Z</time>
      </trkpt>
      <trkpt lat="47.11424" lon="6.80645">
        <ele>1145</ele>
        <time>2020-06-21T20:02:58Z</time>
      </trkpt>
      <trkpt lat="47.11453" lon="6.80621">
        <ele>1140</ele>
        <time>2020-06-21T20:03:05Z</time>
      </trkpt>
      <trkpt lat="47.11493" lon="6.80578">
        <ele>1133</ele>
        <time>2020-06-21T20:03:17Z</time>
      </trkpt>
      <trkpt lat="47.11514" lon="6.80564">
        <ele>1127</ele>
        <time>2020-06-21T20:03:22Z</time>
      </trkpt>
      <trkpt lat="47.11531" lon="6.80566">
        <ele>1121</ele>
        <time>2020-06-21T20:03:26Z</time>
      </trkpt>
      <trkpt lat="47.11549" lon="6.80563">
        <ele>1116</ele>
        <time>2020-06-21T20:03:31Z</time>
      </trkpt>
      <trkpt lat="47.11584" lon="6.80538">
        <ele>1104</ele>
        <time>2020-06-21T20:03:40Z</time>
      </trkpt>
      <trkpt lat="47.11597" lon="6.80534">
        <ele>1100</ele>
        <time>2020-06-21T20:03:43Z</time>
      </trkpt>
      <trkpt lat="47.1161" lon="6.80537">
        <ele>1097</ele>
        <time>2020-06-21T20:03:46Z</time>
      </trkpt>
      <trkpt lat="47.1162" lon="6.80545">
        <ele>1095</ele>
        <time>2020-06-21T20:03:49Z</time>
      </trkpt>
      <trkpt lat="47.11633" lon="6.80537">
        <ele>1091</ele>
        <time>2020-06-21T20:03:52Z</time>
      </trkpt>
      <trkpt lat="47.11646" lon="6.80536">
        <ele>1088</ele>
        <time>2020-06-21T20:03:55Z</time>
      </trkpt>
      <trkpt lat="47.11688" lon="6.80558">
        <ele>1080</ele>
        <time>2020-06-21T20:04:05Z</time>
      </trkpt>
      <trkpt lat="47.11699" lon="6.80556">
        <ele>1078</ele>
        <time>2020-06-21T20:04:08Z</time>
      </trkpt>
      <trkpt lat="47.11715" lon="6.8056">
        <ele>1076</ele>
        <time>2020-06-21T20:04:12Z</time>
      </trkpt>
      <trkpt lat="47.11781" lon="6.80597">
        <ele>1068</ele>
        <time>2020-06-21T20:04:28Z</time>
      </trkpt>
      <trkpt lat="47.11834" lon="6.80619">
        <ele>1064</ele>
        <time>2020-06-21T20:04:41Z</time>
      </trkpt>
      <trkpt lat="47.11895" lon="6.80625">
        <ele>1056</ele>
        <time>2020-06-21T20:04:55Z</time>
      </trkpt>
      <trkpt lat="47.11915" lon="6.8062">
        <ele>1053</ele>
        <time>2020-06-21T20:05:00Z</time>
      </trkpt>
      <trkpt lat="47.11949" lon="6.80635">
        <ele>1051</ele>
        <time>2020-06-21T20:05:08Z</time>
      </trkpt>
      <trkpt lat="47.11957" lon="6.80626">
        <ele>1049</ele>
        <time>2020-06-21T20:05:11Z</time>
      </trkpt>
      <trkpt lat="47.11976" lon="6.80583">
        <ele>1040</ele>
        <time>2020-06-21T20:05:19Z</time>
      </trkpt>
      <trkpt lat="47.11974" lon="6.80569">
        <ele>1038</ele>
        <time>2020-06-21T20:05:21Z</time>
      </trkpt>
      <trkpt lat="47.11981" lon="6.80551">
        <ele>1033</ele>
        <time>2020-06-21T20:05:24Z</time>
      </trkpt>
      <trkpt lat="47.11997" lon="6.80528">
        <ele>1024</ele>
        <time>2020-06-21T20:05:30Z</time>
      </trkpt>
      <trkpt lat="47.1202" lon="6.80473">
        <ele>1017</ele>
        <time>2020-06-21T20:05:40Z</time>
      </trkpt>
      <trkpt lat="47.12024" lon="6.80457">
        <ele>1016</ele>
        <time>2020-06-21T20:05:43Z</time>
      </trkpt>
      <trkpt lat="47.12016" lon="6.80427">
        <ele>1012</ele>
        <time>2020-06-21T20:05:48Z</time>
      </trkpt>
      <trkpt lat="47.12006" lon="6.80366">
        <ele>1007</ele>
        <time>2020-06-21T20:05:58Z</time>
      </trkpt>
      <trkpt lat="47.12009" lon="6.80294">
        <ele>1001</ele>
        <time>2020-06-21T20:06:09Z</time>
      </trkpt>
      <trkpt lat="47.12097" lon="6.80148">
        <ele>968</ele>
        <time>2020-06-21T20:06:40Z</time>
      </trkpt>
      <trkpt lat="47.12115" lon="6.80115">
        <ele>965</ele>
        <time>2020-06-21T20:06:47Z</time>
      </trkpt>
      <trkpt lat="47.1213" lon="6.80076">
        <ele>961</ele>
        <time>2020-06-21T20:06:54Z</time>
      </trkpt>
      <trkpt lat="47.12166" lon="6.80047">
        <ele>955</ele>
        <time>2020-06-21T20:07:04Z</time>
      </trkpt>
      <trkpt lat="47.12187" lon="6.80026">
        <ele>949</ele>
        <time>2020-06-21T20:07:10Z</time>
      </trkpt>
      <trkpt lat="47.12197" lon="6.79998">
        <ele>943</ele>
        <time>2020-06-21T20:07:15Z</time>
      </trkpt>
      <trkpt lat="47.12235" lon="6.79943">
        <ele>930</ele>
        <time>2020-06-21T20:07:27Z</time>
      </trkpt>
      <trkpt lat="47.12234" lon="6.79927">
        <ele>928</ele>
        <time>2020-06-21T20:07:30Z</time>
      </trkpt>
      <trkpt lat="47.12243" lon="6.79909">
        <ele>924</ele>
        <time>2020-06-21T20:07:33Z</time>
      </trkpt>
      <trkpt lat="47.12269" lon="6.79877">
        <ele>916</ele>
        <time>2020-06-21T20:07:41Z</time>
      </trkpt>
      <trkpt lat="47.12289" lon="6.79861">
        <ele>910</ele>
        <time>2020-06-21T20:07:46Z</time>
      </trkpt>
      <trkpt lat="47.12297" lon="6.79847">
        <ele>908</ele>
        <time>2020-06-21T20:07:49Z</time>
      </trkpt>
      <trkpt lat="47.12316" lon="6.7983">
        <ele>904</ele>
        <time>2020-06-21T20:07:54Z</time>
      </trkpt>
      <trkpt lat="47.12341" lon="6.79818">
        <ele>900</ele>
        <time>2020-06-21T20:08:01Z</time>
      </trkpt>
      <trkpt lat="47.12374" lon="6.79794">
        <ele>896</ele>
        <time>2020-06-21T20:08:09Z</time>
      </trkpt>
      <trkpt lat="47.12388" lon="6.79771">
        <ele>893</ele>
        <time>2020-06-21T20:08:14Z</time>
      </trkpt>
      <trkpt lat="47.12398" lon="6.79761">
        <ele>891</ele>
        <time>2020-06-21T20:08:17Z</time>
      </trkpt>
      <trkpt lat="47.12404" lon="6.79749">
        <ele>889</ele>
        <time>2020-06-21T20:08:19Z</time>
      </trkpt>
      <trkpt lat="47.12409" lon="6.79715">
        <ele>883</ele>
        <time>2020-06-21T20:08:25Z</time>
      </trkpt>
      <trkpt lat="47.12424" lon="6.79687">
        <ele>877</ele>
        <time>2020-06-21T20:08:30Z</time>
      </trkpt>
      <trkpt lat="47.1247" lon="6.79628">
        <ele>861</ele>
        <time>2020-06-21T20:08:45Z</time>
      </trkpt>
      <trkpt lat="47.12485" lon="6.79589">
        <ele>846</ele>
        <time>2020-06-21T20:08:52Z</time>
      </trkpt>
      <trkpt lat="47.12488" lon="6.79552">
        <ele>833</ele>
        <time>2020-06-21T20:08:58Z</time>
      </trkpt>
      <trkpt lat="47.12497" lon="6.79523">
        <ele>820</ele>
        <time>2020-06-21T20:09:03Z</time>
      </trkpt>
      <trkpt lat="47.12511" lon="6.79495">
        <ele>806</ele>
        <time>2020-06-21T20:09:08Z</time>
      </trkpt>
      <trkpt lat="47.12515" lon="6.79481">
        <ele>802</ele>
        <time>2020-06-21T20:09:11Z</time>
      </trkpt>
      <trkpt lat="47.12525" lon="6.79478">
        <ele>797</ele>
        <time>2020-06-21T20:09:13Z</time>
      </trkpt>
      <trkpt lat="47.12535" lon="6.79479">
        <ele>793</ele>
        <time>2020-06-21T20:09:15Z</time>
      </trkpt>
      <trkpt lat="47.12529" lon="6.79448">
        <ele>789</ele>
        <time>2020-06-21T20:09:21Z</time>
      </trkpt>
      <trkpt lat="47.12539" lon="6.79419">
        <ele>776</ele>
        <time>2020-06-21T20:09:26Z</time>
      </trkpt>
      <trkpt lat="47.12553" lon="6.79394">
        <ele>760</ele>
        <time>2020-06-21T20:09:31Z</time>
      </trkpt>
      <trkpt lat="47.12549" lon="6.7938">
        <ele>760</ele>
        <time>2020-06-21T20:09:33Z</time>
      </trkpt>
      <trkpt lat="47.12592" lon="6.79369">
        <ele>725</ele>
        <time>2020-06-21T20:09:44Z</time>
      </trkpt>
      <trkpt lat="47.12624" lon="6.79349">
        <ele>698</ele>
        <time>2020-06-21T20:09:52Z</time>
      </trkpt>
      <trkpt lat="47.12647" lon="6.79319">
        <ele>675</ele>
        <time>2020-06-21T20:09:59Z</time>
      </trkpt>
      <trkpt lat="47.12652" lon="6.79305">
        <ele>668</ele>
        <time>2020-06-21T20:10:01Z</time>
      </trkpt>
      <trkpt lat="47.12647" lon="6.79267">
        <ele>662</ele>
        <time>2020-06-21T20:10:07Z</time>
      </trkpt>
      <trkpt lat="47.12658" lon="6.7926">
        <ele>652</ele>
        <time>2020-06-21T20:10:10Z</time>
      </trkpt>
      <trkpt lat="47.12679" lon="6.79265">
        <ele>649</ele>
        <time>2020-06-21T20:10:15Z</time>
      </trkpt>
      <trkpt lat="47.12688" lon="6.7926">
        <ele>648</ele>
        <time>2020-06-21T20:10:18Z</time>
      </trkpt>
      <trkpt lat="47.12684" lon="6.79229">
        <ele>646</ele>
        <time>2020-06-21T20:10:23Z</time>
      </trkpt>
      <trkpt lat="47.12686" lon="6.79214">
        <ele>646</ele>
        <time>2020-06-21T20:10:25Z</time>
      </trkpt>
      <trkpt lat="47.12684" lon="6.79199">
        <ele>645</ele>
        <time>2020-06-21T20:10:27Z</time>
      </trkpt>
      <trkpt lat="47.1269" lon="6.79166">
        <ele>648</ele>
        <time>2020-06-21T20:10:33Z</time>
      </trkpt>
      <trkpt lat="47.12705" lon="6.79162">
        <ele>660</ele>
        <time>2020-06-21T20:10:36Z</time>
      </trkpt>
      <trkpt lat="47.12716" lon="6.79167">
        <ele>666</ele>
        <time>2020-06-21T20:10:39Z</time>
      </trkpt>
      <trkpt lat="47.12758" lon="6.79204">
        <ele>682</ele>
        <time>2020-06-21T20:10:50Z</time>
      </trkpt>
      <trkpt lat="47.12797" lon="6.79253">
        <ele>699</ele>
        <time>2020-06-21T20:11:02Z</time>
      </trkpt>
      <trkpt lat="47.12786" lon="6.79259">
        <ele>686</ele>
        <time>2020-06-21T20:11:05Z</time>
      </trkpt>
      <trkpt lat="47.12747" lon="6.79246">
        <ele>657</ele>
        <time>2020-06-21T20:11:15Z</time>
      </trkpt>
      <trkpt lat="47.12737" lon="6.79237">
        <ele>658</ele>
        <time>2020-06-21T20:11:17Z</time>
      </trkpt>
      <trkpt lat="47.12717" lon="6.792">
        <ele>661</ele>
        <time>2020-06-21T20:11:25Z</time>
      </trkpt>
      <trkpt lat="47.1272" lon="6.79185">
        <ele>665</ele>
        <time>2020-06-21T20:11:27Z</time>
      </trkpt>
      <trkpt lat="47.12712" lon="6.79175">
        <ele>662</ele>
        <time>2020-06-21T20:11:30Z</time>
      </trkpt>
      <trkpt lat="47.12705" lon="6.79144">
        <ele>663</ele>
        <time>2020-06-21T20:11:35Z</time>
      </trkpt>
      <trkpt lat="47.12704" lon="6.79129">
        <ele>665</ele>
        <time>2020-06-21T20:11:37Z</time>
      </trkpt>
      <trkpt lat="47.12685" lon="6.79088">
        <ele>658</ele>
        <time>2020-06-21T20:11:45Z</time>
      </trkpt>
      <trkpt lat="47.12686" lon="6.79073">
        <ele>662</ele>
        <time>2020-06-21T20:11:48Z</time>
      </trkpt>
      <trkpt lat="47.12678" lon="6.79059">
        <ele>658</ele>
        <time>2020-06-21T20:11:50Z</time>
      </trkpt>
      <trkpt lat="47.12658" lon="6.79037">
        <ele>653</ele>
        <time>2020-06-21T20:11:56Z</time>
      </trkpt>
      <trkpt lat="47.12659" lon="6.79005">
        <ele>658</ele>
        <time>2020-06-21T20:12:01Z</time>
      </trkpt>
      <trkpt lat="47.12651" lon="6.78976">
        <ele>659</ele>
        <time>2020-06-21T20:12:06Z</time>
      </trkpt>
      <trkpt lat="47.12651" lon="6.78927">
        <ele>659</ele>
        <time>2020-06-21T20:12:14Z</time>
      </trkpt>
      <trkpt lat="47.12631" lon="6.78834">
        <ele>673</ele>
        <time>2020-06-21T20:12:30Z</time>
      </trkpt>
      <trkpt lat="47.12631" lon="6.78818">
        <ele>675</ele>
        <time>2020-06-21T20:12:32Z</time>
      </trkpt>
      <trkpt lat="47.12603" lon="6.78709">
        <ele>660</ele>
        <time>2020-06-21T20:12:51Z</time>
      </trkpt>
      <trkpt lat="47.12582" lon="6.78659">
        <ele>651</ele>
        <time>2020-06-21T20:13:00Z</time>
      </trkpt>
      <trkpt lat="47.1259" lon="6.78624">
        <ele>665</ele>
        <time>2020-06-21T20:13:06Z</time>
      </trkpt>
      <trkpt lat="47.1259" lon="6.78594">
        <ele>672</ele>
        <time>2020-06-21T20:13:11Z</time>
      </trkpt>
      <trkpt lat="47.12564" lon="6.7855">
        <ele>675</ele>
        <time>2020-06-21T20:13:20Z</time>
      </trkpt>
      <trkpt lat="47.12558" lon="6.78513">
        <ele>684</ele>
        <time>2020-06-21T20:13:26Z</time>
      </trkpt>
      <trkpt lat="47.12548" lon="6.78483">
        <ele>685</ele>
        <time>2020-06-21T20:13:31Z</time>
      </trkpt>
      <trkpt lat="47.12518" lon="6.78415">
        <ele>669</ele>
        <time>2020-06-21T20:13:44Z</time>
      </trkpt>
      <trkpt lat="47.1251" lon="6.78383">
        <ele>668</ele>
        <time>2020-06-21T20:13:50Z</time>
      </trkpt>
      <trkpt lat="47.12499" lon="6.78355">
        <ele>663</ele>
        <time>2020-06-21T20:13:55Z</time>
      </trkpt>
      <trkpt lat="47.12484" lon="6.78329">
        <ele>666</ele>
        <time>2020-06-21T20:14:00Z</time>
      </trkpt>
      <trkpt lat="47.12485" lon="6.78263">
        <ele>679</ele>
        <time>2020-06-21T20:14:11Z</time>
      </trkpt>
      <trkpt lat="47.12471" lon="6.78194">
        <ele>681</ele>
        <time>2020-06-21T20:14:22Z</time>
      </trkpt>
      <trkpt lat="47.12461" lon="6.78163">
        <ele>677</ele>
        <time>2020-06-21T20:14:28Z</time>
      </trkpt>
      <trkpt lat="47.12455" lon="6.78084">
        <ele>675</ele>
        <time>2020-06-21T20:14:40Z</time>
      </trkpt>
      <trkpt lat="47.12457" lon="6.7804">
        <ele>686</ele>
        <time>2020-06-21T20:14:47Z</time>
      </trkpt>
      <trkpt lat="47.12463" lon="6.78022">
        <ele>696</ele>
        <time>2020-06-21T20:14:50Z</time>
      </trkpt>
      <trkpt lat="47.12479" lon="6.77994">
        <ele>720</ele>
        <time>2020-06-21T20:14:56Z</time>
      </trkpt>
      <trkpt lat="47.12512" lon="6.77954">
        <ele>759</ele>
        <time>2020-06-21T20:15:06Z</time>
      </trkpt>
      <trkpt lat="47.12497" lon="6.77911">
        <ele>755</ele>
        <time>2020-06-21T20:15:14Z</time>
      </trkpt>
      <trkpt lat="47.12474" lon="6.77874">
        <ele>741</ele>
        <time>2020-06-21T20:15:22Z</time>
      </trkpt>
      <trkpt lat="47.12379" lon="6.77791">
        <ele>708</ele>
        <time>2020-06-21T20:15:48Z</time>
      </trkpt>
      <trkpt lat="47.12358" lon="6.77765">
        <ele>709</ele>
        <time>2020-06-21T20:15:54Z</time>
      </trkpt>
      <trkpt lat="47.12314" lon="6.77728">
        <ele>701</ele>
        <time>2020-06-21T20:16:06Z</time>
      </trkpt>
      <trkpt lat="47.12292" lon="6.77705">
        <ele>698</ele>
        <time>2020-06-21T20:16:12Z</time>
      </trkpt>
      <trkpt lat="47.12275" lon="6.77681">
        <ele>699</ele>
        <time>2020-06-21T20:16:18Z</time>
      </trkpt>
      <trkpt lat="47.12233" lon="6.77642">
        <ele>692</ele>
        <time>2020-06-21T20:16:29Z</time>
      </trkpt>
      <trkpt lat="47.12195" lon="6.77587">
        <ele>691</ele>
        <time>2020-06-21T20:16:42Z</time>
      </trkpt>
      <trkpt lat="47.12184" lon="6.7758">
        <ele>685</ele>
        <time>2020-06-21T20:16:45Z</time>
      </trkpt>
      <trkpt lat="47.12174" lon="6.77578">
        <ele>677</ele>
        <time>2020-06-21T20:16:47Z</time>
      </trkpt>
      <trkpt lat="47.12157" lon="6.77599">
        <ele>666</ele>
        <time>2020-06-21T20:16:52Z</time>
      </trkpt>
      <trkpt lat="47.12159" lon="6.77614">
        <ele>661</ele>
        <time>2020-06-21T20:16:55Z</time>
      </trkpt>
      <trkpt lat="47.12149" lon="6.7764">
        <ele>656</ele>
        <time>2020-06-21T20:16:59Z</time>
      </trkpt>
      <trkpt lat="47.12142" lon="6.77667">
        <ele>653</ele>
        <time>2020-06-21T20:17:04Z</time>
      </trkpt>
      <trkpt lat="47.12142" lon="6.77696">
        <ele>658</ele>
        <time>2020-06-21T20:17:08Z</time>
      </trkpt>
      <trkpt lat="47.12134" lon="6.77722">
        <ele>669</ele>
        <time>2020-06-21T20:17:13Z</time>
      </trkpt>
      <trkpt lat="47.1214" lon="6.7775">
        <ele>670</ele>
        <time>2020-06-21T20:17:18Z</time>
      </trkpt>
      <trkpt lat="47.12148" lon="6.77762">
        <ele>669</ele>
        <time>2020-06-21T20:17:20Z</time>
      </trkpt>
      <trkpt lat="47.12197" lon="6.77811">
        <ele>662</ele>
        <time>2020-06-21T20:17:34Z</time>
      </trkpt>
      <trkpt lat="47.12194" lon="6.77823">
        <ele>665</ele>
        <time>2020-06-21T20:17:36Z</time>
      </trkpt>
      <trkpt lat="47.12183" lon="6.77843">
        <ele>677</ele>
        <time>2020-06-21T20:17:40Z</time>
      </trkpt>
      <trkpt lat="47.12164" lon="6.77839">
        <ele>685</ele>
        <time>2020-06-21T20:17:45Z</time>
      </trkpt>
      <trkpt lat="47.12156" lon="6.77848">
        <ele>695</ele>
        <time>2020-06-21T20:17:47Z</time>
      </trkpt>
      <trkpt lat="47.12165" lon="6.77857">
        <ele>693</ele>
        <time>2020-06-21T20:17:50Z</time>
      </trkpt>
      <trkpt lat="47.12171" lon="6.7787">
        <ele>696</ele>
        <time>2020-06-21T20:17:52Z</time>
      </trkpt>
      <trkpt lat="47.12165" lon="6.77883">
        <ele>706</ele>
        <time>2020-06-21T20:17:55Z</time>
      </trkpt>
      <trkpt lat="47.12156" lon="6.77893">
        <ele>717</ele>
        <time>2020-06-21T20:17:57Z</time>
      </trkpt>
      <trkpt lat="47.12163" lon="6.77905">
        <ele>718</ele>
        <time>2020-06-21T20:18:00Z</time>
      </trkpt>
      <trkpt lat="47.12204" lon="6.77922">
        <ele>701</ele>
        <time>2020-06-21T20:18:10Z</time>
      </trkpt>
      <trkpt lat="47.12186" lon="6.77933">
        <ele>718</ele>
        <time>2020-06-21T20:18:14Z</time>
      </trkpt>
      <trkpt lat="47.12178" lon="6.77921">
        <ele>716</ele>
        <time>2020-06-21T20:18:17Z</time>
      </trkpt>
      <trkpt lat="47.12167" lon="6.77914">
        <ele>719</ele>
        <time>2020-06-21T20:18:20Z</time>
      </trkpt>
      <trkpt lat="47.1216" lon="6.77904">
        <ele>720</ele>
        <time>2020-06-21T20:18:22Z</time>
      </trkpt>
      <trkpt lat="47.12157" lon="6.77891">
        <ele>715</ele>
        <time>2020-06-21T20:18:24Z</time>
      </trkpt>
      <trkpt lat="47.12141" lon="6.77876">
        <ele>720</ele>
        <time>2020-06-21T20:18:29Z</time>
      </trkpt>
      <trkpt lat="47.12118" lon="6.77869">
        <ele>734</ele>
        <time>2020-06-21T20:18:34Z</time>
      </trkpt>
      <trkpt lat="47.1211" lon="6.77859">
        <ele>736</ele>
        <time>2020-06-21T20:18:37Z</time>
      </trkpt>
      <trkpt lat="47.12106" lon="6.77872">
        <ele>744</ele>
        <time>2020-06-21T20:18:39Z</time>
      </trkpt>
      <trkpt lat="47.12114" lon="6.77881">
        <ele>742</ele>
        <time>2020-06-21T20:18:41Z</time>
      </trkpt>
      <trkpt lat="47.12121" lon="6.77909">
        <ele>750</ele>
        <time>2020-06-21T20:18:46Z</time>
      </trkpt>
      <trkpt lat="47.12119" lon="6.77924">
        <ele>758</ele>
        <time>2020-06-21T20:18:48Z</time>
      </trkpt>
      <trkpt lat="47.12122" lon="6.7794">
        <ele>763</ele>
        <time>2020-06-21T20:18:51Z</time>
      </trkpt>
      <trkpt lat="47.12131" lon="6.77949">
        <ele>761</ele>
        <time>2020-06-21T20:18:54Z</time>
      </trkpt>
      <trkpt lat="47.12141" lon="6.77953">
        <ele>757</ele>
        <time>2020-06-21T20:18:56Z</time>
      </trkpt>
      <trkpt lat="47.12151" lon="6.77979">
        <ele>763</ele>
        <time>2020-06-21T20:19:01Z</time>
      </trkpt>
      <trkpt lat="47.12167" lon="6.77995">
        <ele>760</ele>
        <time>2020-06-21T20:19:05Z</time>
      </trkpt>
      <trkpt lat="47.12188" lon="6.78002">
        <ele>753</ele>
        <time>2020-06-21T20:19:10Z</time>
      </trkpt>
      <trkpt lat="47.12196" lon="6.78011">
        <ele>753</ele>
        <time>2020-06-21T20:19:13Z</time>
      </trkpt>
      <trkpt lat="47.1221" lon="6.78053">
        <ele>764</ele>
        <time>2020-06-21T20:19:20Z</time>
      </trkpt>
      <trkpt lat="47.12219" lon="6.78065">
        <ele>764</ele>
        <time>2020-06-21T20:19:23Z</time>
      </trkpt>
      <trkpt lat="47.12226" lon="6.78095">
        <ele>771</ele>
        <time>2020-06-21T20:19:28Z</time>
      </trkpt>
      <trkpt lat="47.12225" lon="6.7811">
        <ele>776</ele>
        <time>2020-06-21T20:19:30Z</time>
      </trkpt>
      <trkpt lat="47.12235" lon="6.78136">
        <ele>777</ele>
        <time>2020-06-21T20:19:35Z</time>
      </trkpt>
      <trkpt lat="47.12237" lon="6.78152">
        <ele>780</ele>
        <time>2020-06-21T20:19:38Z</time>
      </trkpt>
      <trkpt lat="47.12227" lon="6.78152">
        <ele>786</ele>
        <time>2020-06-21T20:19:40Z</time>
      </trkpt>
      <trkpt lat="47.12213" lon="6.78129">
        <ele>787</ele>
        <time>2020-06-21T20:19:45Z</time>
      </trkpt>
      <trkpt lat="47.12195" lon="6.78092">
        <ele>788</ele>
        <time>2020-06-21T20:19:52Z</time>
      </trkpt>
      <trkpt lat="47.12186" lon="6.78087">
        <ele>791</ele>
        <time>2020-06-21T20:19:54Z</time>
      </trkpt>
      <trkpt lat="47.12105" lon="6.78068">
        <ele>824</ele>
        <time>2020-06-21T20:20:14Z</time>
      </trkpt>
      <trkpt lat="47.12079" lon="6.78044">
        <ele>830</ele>
        <time>2020-06-21T20:20:21Z</time>
      </trkpt>
      <trkpt lat="47.12069" lon="6.7804">
        <ele>834</ele>
        <time>2020-06-21T20:20:23Z</time>
      </trkpt>
      <trkpt lat="47.12062" lon="6.78028">
        <ele>834</ele>
        <time>2020-06-21T20:20:26Z</time>
      </trkpt>
      <trkpt lat="47.12058" lon="6.77998">
        <ele>829</ele>
        <time>2020-06-21T20:20:30Z</time>
      </trkpt>
      <trkpt lat="47.12043" lon="6.77954">
        <ele>823</ele>
        <time>2020-06-21T20:20:38Z</time>
      </trkpt>
      <trkpt lat="47.1204" lon="6.77939">
        <ele>820</ele>
        <time>2020-06-21T20:20:41Z</time>
      </trkpt>
      <trkpt lat="47.11995" lon="6.77866">
        <ele>828</ele>
        <time>2020-06-21T20:20:56Z</time>
      </trkpt>
      <trkpt lat="47.11969" lon="6.77815">
        <ele>830</ele>
        <time>2020-06-21T20:21:07Z</time>
      </trkpt>
      <trkpt lat="47.11956" lon="6.7777">
        <ele>828</ele>
        <time>2020-06-21T20:21:14Z</time>
      </trkpt>
      <trkpt lat="47.11947" lon="6.77758">
        <ele>832</ele>
        <time>2020-06-21T20:21:17Z</time>
      </trkpt>
      <trkpt lat="47.11945" lon="6.77742">
        <ele>830</ele>
        <time>2020-06-21T20:21:20Z</time>
      </trkpt>
      <trkpt lat="47.11934" lon="6.77714">
        <ele>833</ele>
        <time>2020-06-21T20:21:25Z</time>
      </trkpt>
      <trkpt lat="47.11925" lon="6.77702">
        <ele>837</ele>
        <time>2020-06-21T20:21:28Z</time>
      </trkpt>
      <trkpt lat="47.11914" lon="6.77674">
        <ele>840</ele>
        <time>2020-06-21T20:21:33Z</time>
      </trkpt>
      <trkpt lat="47.11909" lon="6.77626">
        <ele>833</ele>
        <time>2020-06-21T20:21:41Z</time>
      </trkpt>
      <trkpt lat="47.1191" lon="6.77611">
        <ele>830</ele>
        <time>2020-06-21T20:21:43Z</time>
      </trkpt>
      <trkpt lat="47.11901" lon="6.77581">
        <ele>829</ele>
        <time>2020-06-21T20:21:48Z</time>
      </trkpt>
      <trkpt lat="47.11886" lon="6.77559">
        <ele>835</ele>
        <time>2020-06-21T20:21:53Z</time>
      </trkpt>
      <trkpt lat="47.11872" lon="6.7753">
        <ele>839</ele>
        <time>2020-06-21T20:21:59Z</time>
      </trkpt>
      <trkpt lat="47.11867" lon="6.77551">
        <ele>843</ele>
        <time>2020-06-21T20:22:02Z</time>
      </trkpt>
      <trkpt lat="47.11864" lon="6.776">
        <ele>851</ele>
        <time>2020-06-21T20:22:10Z</time>
      </trkpt>
      <trkpt lat="47.11851" lon="6.77674">
        <ele>871</ele>
        <time>2020-06-21T20:22:22Z</time>
      </trkpt>
      <trkpt lat="47.1185" lon="6.77714">
        <ele>876</ele>
        <time>2020-06-21T20:22:29Z</time>
      </trkpt>
      <trkpt lat="47.11855" lon="6.77737">
        <ele>877</ele>
        <time>2020-06-21T20:22:33Z</time>
      </trkpt>
      <trkpt lat="47.11883" lon="6.77812">
        <ele>877</ele>
        <time>2020-06-21T20:22:46Z</time>
      </trkpt>
      <trkpt lat="47.11886" lon="6.7785">
        <ele>882</ele>
        <time>2020-06-21T20:22:52Z</time>
      </trkpt>
      <trkpt lat="47.11881" lon="6.77901">
        <ele>889</ele>
        <time>2020-06-21T20:23:00Z</time>
      </trkpt>
      <trkpt lat="47.11884" lon="6.77914">
        <ele>890</ele>
        <time>2020-06-21T20:23:03Z</time>
      </trkpt>
      <trkpt lat="47.11884" lon="6.77943">
        <ele>892</ele>
        <time>2020-06-21T20:23:07Z</time>
      </trkpt>
      <trkpt lat="47.11876" lon="6.77996">
        <ele>899</ele>
        <time>2020-06-21T20:23:16Z</time>
      </trkpt>
      <trkpt lat="47.11859" lon="6.78044">
        <ele>906</ele>
        <time>2020-06-21T20:23:24Z</time>
      </trkpt>
      <trkpt lat="47.11853" lon="6.78109">
        <ele>911</ele>
        <time>2020-06-21T20:23:35Z</time>
      </trkpt>
      <trkpt lat="47.11821" lon="6.78183">
        <ele>919</ele>
        <time>2020-06-21T20:23:49Z</time>
      </trkpt>
      <trkpt lat="47.1181" lon="6.78203">
        <ele>920</ele>
        <time>2020-06-21T20:23:53Z</time>
      </trkpt>
      <trkpt lat="47.11778" lon="6.78247">
        <ele>926</ele>
        <time>2020-06-21T20:24:03Z</time>
      </trkpt>
      <trkpt lat="47.11772" lon="6.78271">
        <ele>925</ele>
        <time>2020-06-21T20:24:07Z</time>
      </trkpt>
      <trkpt lat="47.11796" lon="6.78386">
        <ele>916</ele>
        <time>2020-06-21T20:24:26Z</time>
      </trkpt>
      <trkpt lat="47.11795" lon="6.78394">
        <ele>917</ele>
        <time>2020-06-21T20:24:28Z</time>
      </trkpt>
      <trkpt lat="47.11771" lon="6.78406">
        <ele>921</ele>
        <time>2020-06-21T20:24:33Z</time>
      </trkpt>
      <trkpt lat="47.11757" lon="6.78426">
        <ele>923</ele>
        <time>2020-06-21T20:24:38Z</time>
      </trkpt>
      <trkpt lat="47.11726" lon="6.78459">
        <ele>930</ele>
        <time>2020-06-21T20:24:47Z</time>
      </trkpt>
      <trkpt lat="47.1172" lon="6.78472">
        <ele>932</ele>
        <time>2020-06-21T20:24:49Z</time>
      </trkpt>
      <trkpt lat="47.11716" lon="6.78493">
        <ele>933</ele>
        <time>2020-06-21T20:24:53Z</time>
      </trkpt>
      <trkpt lat="47.11716" lon="6.78525">
        <ele>934</ele>
        <time>2020-06-21T20:24:58Z</time>
      </trkpt>
      <trkpt lat="47.11712" lon="6.78542">
        <ele>935</ele>
        <time>2020-06-21T20:25:01Z</time>
      </trkpt>
      <trkpt lat="47.11702" lon="6.78546">
        <ele>937</ele>
        <time>2020-06-21T20:25:03Z</time>
      </trkpt>
      <trkpt lat="47.11661" lon="6.78523">
        <ele>945</ele>
        <time>2020-06-21T20:25:14Z</time>
      </trkpt>
      <trkpt lat="47.11645" lon="6.78517">
        <ele>949</ele>
        <time>2020-06-21T20:25:17Z</time>
      </trkpt>
      <trkpt lat="47.11632" lon="6.7852">
        <ele>952</ele>
        <time>2020-06-21T20:25:20Z</time>
      </trkpt>
      <trkpt lat="47.11615" lon="6.78478">
        <ele>955</ele>
        <time>2020-06-21T20:25:28Z</time>
      </trkpt>
      <trkpt lat="47.11579" lon="6.78365">
        <ele>959</ele>
        <time>2020-06-21T20:25:48Z</time>
      </trkpt>
      <trkpt lat="47.11539" lon="6.78173">
        <ele>962</ele>
        <time>2020-06-21T20:26:20Z</time>
      </trkpt>
      <trkpt lat="47.11492" lon="6.7802">
        <ele>964</ele>
        <time>2020-06-21T20:26:47Z</time>
      </trkpt>
      <trkpt lat="47.11473" lon="6.77926">
        <ele>965</ele>
        <time>2020-06-21T20:27:02Z</time>
      </trkpt>
      <trkpt lat="47.11464" lon="6.77903">
        <ele>966</ele>
        <time>2020-06-21T20:27:06Z</time>
      </trkpt>
      <trkpt lat="47.11433" lon="6.77867">
        <ele>969</ele>
        <time>2020-06-21T20:27:16Z</time>
      </trkpt>
      <trkpt lat="47.11427" lon="6.77855">
        <ele>969</ele>
        <time>2020-06-21T20:27:18Z</time>
      </trkpt>
      <trkpt lat="47.11403" lon="6.77753">
        <ele>966</ele>
        <time>2020-06-21T20:27:35Z</time>
      </trkpt>
      <trkpt lat="47.11402" lon="6.7774">
        <ele>965</ele>
        <time>2020-06-21T20:27:37Z</time>
      </trkpt>
      <trkpt lat="47.11406" lon="6.77713">
        <ele>963</ele>
        <time>2020-06-21T20:27:42Z</time>
      </trkpt>
      <trkpt lat="47.11407" lon="6.77684">
        <ele>962</ele>
        <time>2020-06-21T20:27:46Z</time>
      </trkpt>
      <trkpt lat="47.11388" lon="6.77559">
        <ele>968</ele>
        <time>2020-06-21T20:28:07Z</time>
      </trkpt>
      <trkpt lat="47.11393" lon="6.77457">
        <ele>968</ele>
        <time>2020-06-21T20:28:23Z</time>
      </trkpt>
      <trkpt lat="47.1139" lon="6.77419">
        <ele>968</ele>
        <time>2020-06-21T20:28:29Z</time>
      </trkpt>
      <trkpt lat="47.11369" lon="6.77347">
        <ele>969</ele>
        <time>2020-06-21T20:28:41Z</time>
      </trkpt>
      <trkpt lat="47.11364" lon="6.77317">
        <ele>968</ele>
        <time>2020-06-21T20:28:46Z</time>
      </trkpt>
      <trkpt lat="47.1136" lon="6.77233">
        <ele>962</ele>
        <time>2020-06-21T20:29:00Z</time>
      </trkpt>
      <trkpt lat="47.11336" lon="6.77122">
        <ele>960</ele>
        <time>2020-06-21T20:29:18Z</time>
      </trkpt>
      <trkpt lat="47.11335" lon="6.77098">
        <ele>958</ele>
        <time>2020-06-21T20:29:22Z</time>
      </trkpt>
      <trkpt lat="47.11338" lon="6.77034">
        <ele>952</ele>
        <time>2020-06-21T20:29:32Z</time>
      </trkpt>
      <trkpt lat="47.11334" lon="6.76984">
        <ele>948</ele>
        <time>2020-06-21T20:29:40Z</time>
      </trkpt>
      <trkpt lat="47.11323" lon="6.76918">
        <ele>943</ele>
        <time>2020-06-21T20:29:51Z</time>
      </trkpt>
      <trkpt lat="47.11323" lon="6.7693">
        <ele>944</ele>
        <time>2020-06-21T20:29:53Z</time>
      </trkpt>
      <trkpt lat="47.11337" lon="6.76985">
        <ele>947</ele>
        <time>2020-06-21T20:30:02Z</time>
      </trkpt>
      <trkpt lat="47.11334" lon="6.76995">
        <ele>949</ele>
        <time>2020-06-21T20:30:04Z</time>
      </trkpt>
      <trkpt lat="47.11309" lon="6.76973">
        <ele>954</ele>
        <time>2020-06-21T20:30:11Z</time>
      </trkpt>
      <trkpt lat="47.113" lon="6.76943">
        <ele>953</ele>
        <time>2020-06-21T20:30:16Z</time>
      </trkpt>
      <trkpt lat="47.11243" lon="6.76843">
        <ele>962</ele>
        <time>2020-06-21T20:30:37Z</time>
      </trkpt>
      <trkpt lat="47.11215" lon="6.76771">
        <ele>962</ele>
        <time>2020-06-21T20:30:50Z</time>
      </trkpt>
      <trkpt lat="47.11184" lon="6.76711">
        <ele>965</ele>
        <time>2020-06-21T20:31:02Z</time>
      </trkpt>
      <trkpt lat="47.11182" lon="6.76699">
        <ele>964</ele>
        <time>2020-06-21T20:31:04Z</time>
      </trkpt>
      <trkpt lat="47.1116" lon="6.76664">
        <ele>968</ele>
        <time>2020-06-21T20:31:11Z</time>
      </trkpt>
      <trkpt lat="47.11124" lon="6.76583">
        <ele>968</ele>
        <time>2020-06-21T20:31:27Z</time>
      </trkpt>
      <trkpt lat="47.11087" lon="6.76522">
        <ele>973</ele>
        <time>2020-06-21T20:31:40Z</time>
      </trkpt>
      <trkpt lat="47.11092" lon="6.76576">
        <ele>977</ele>
        <time>2020-06-21T20:31:48Z</time>
      </trkpt>
      <trkpt lat="47.11115" lon="6.76706">
        <ele>984</ele>
        <time>2020-06-21T20:32:10Z</time>
      </trkpt>
      <trkpt lat="47.11131" lon="6.76771">
        <ele>985</ele>
        <time>2020-06-21T20:32:21Z</time>
      </trkpt>
      <trkpt lat="47.11142" lon="6.7686">
        <ele>989</ele>
        <time>2020-06-21T20:32:35Z</time>
      </trkpt>
      <trkpt lat="47.11155" lon="6.76911">
        <ele>990</ele>
        <time>2020-06-21T20:32:44Z</time>
      </trkpt>
      <trkpt lat="47.1116" lon="6.7697">
        <ele>993</ele>
        <time>2020-06-21T20:32:53Z</time>
      </trkpt>
      <trkpt lat="47.11157" lon="6.76992">
        <ele>995</ele>
        <time>2020-06-21T20:32:57Z</time>
      </trkpt>
      <trkpt lat="47.11157" lon="6.77015">
        <ele>996</ele>
        <time>2020-06-21T20:33:01Z</time>
      </trkpt>
      <trkpt lat="47.11146" lon="6.77048">
        <ele>999</ele>
        <time>2020-06-21T20:33:06Z</time>
      </trkpt>
      <trkpt lat="47.11164" lon="6.77119">
        <ele>996</ele>
        <time>2020-06-21T20:33:18Z</time>
      </trkpt>
      <trkpt lat="47.1116" lon="6.77149">
        <ele>997</ele>
        <time>2020-06-21T20:33:23Z</time>
      </trkpt>
      <trkpt lat="47.1115" lon="6.77163">
        <ele>999</ele>
        <time>2020-06-21T20:33:26Z</time>
      </trkpt>
      <trkpt lat="47.11143" lon="6.77165">
        <ele>1000</ele>
        <time>2020-06-21T20:33:28Z</time>
      </trkpt>
      <trkpt lat="47.1113" lon="6.77154">
        <ele>1002</ele>
        <time>2020-06-21T20:33:32Z</time>
      </trkpt>
      <trkpt lat="47.11125" lon="6.77133">
        <ele>1003</ele>
        <time>2020-06-21T20:33:35Z</time>
      </trkpt>
      <trkpt lat="47.11114" lon="6.77115">
        <ele>1005</ele>
        <time>2020-06-21T20:33:39Z</time>
      </trkpt>
      <trkpt lat="47.11096" lon="6.77103">
        <ele>1008</ele>
        <time>2020-06-21T20:33:44Z</time>
      </trkpt>
      <trkpt lat="47.11087" lon="6.77092">
        <ele>1010</ele>
        <time>2020-06-21T20:33:46Z</time>
      </trkpt>
      <trkpt lat="47.11079" lon="6.77066">
        <ele>1011</ele>
        <time>2020-06-21T20:33:51Z</time>
      </trkpt>
      <trkpt lat="47.11079" lon="6.77045">
        <ele>1011</ele>
        <time>2020-06-21T20:33:54Z</time>
      </trkpt>
      <trkpt lat="47.11071" lon="6.77026">
        <ele>1012</ele>
        <time>2020-06-21T20:33:58Z</time>
      </trkpt>
      <trkpt lat="47.11043" lon="6.76977">
        <ele>1012</ele>
        <time>2020-06-21T20:34:08Z</time>
      </trkpt>
      <trkpt lat="47.11016" lon="6.76945">
        <ele>1014</ele>
        <time>2020-06-21T20:34:16Z</time>
      </trkpt>
      <trkpt lat="47.10971" lon="6.76912">
        <ele>1018</ele>
        <time>2020-06-21T20:34:28Z</time>
      </trkpt>
      <trkpt lat="47.10931" lon="6.76867">
        <ele>1020</ele>
        <time>2020-06-21T20:34:40Z</time>
      </trkpt>
      <trkpt lat="47.10889" lon="6.76798">
        <ele>1026</ele>
        <time>2020-06-21T20:34:54Z</time>
      </trkpt>
      <trkpt lat="47.10853" lon="6.76719">
        <ele>1033</ele>
        <time>2020-06-21T20:35:09Z</time>
      </trkpt>
      <trkpt lat="47.10838" lon="6.7668">
        <ele>1035</ele>
        <time>2020-06-21T20:35:17Z</time>
      </trkpt>
      <trkpt lat="47.10838" lon="6.76667">
        <ele>1034</ele>
        <time>2020-06-21T20:35:19Z</time>
      </trkpt>
      <trkpt lat="47.10832" lon="6.76663">
        <ele>1035</ele>
        <time>2020-06-21T20:35:20Z</time>
      </trkpt>
      <trkpt lat="47.10803" lon="6.76619">
        <ele>1039</ele>
        <time>2020-06-21T20:35:30Z</time>
      </trkpt>
      <trkpt lat="47.10777" lon="6.76552">
        <ele>1041</ele>
        <time>2020-06-21T20:35:42Z</time>
      </trkpt>
      <trkpt lat="47.10763" lon="6.76539">
        <ele>1043</ele>
        <time>2020-06-21T20:35:46Z</time>
      </trkpt>
      <trkpt lat="47.10753" lon="6.76523">
        <ele>1044</ele>
        <time>2020-06-21T20:35:49Z</time>
      </trkpt>
      <trkpt lat="47.10731" lon="6.76501">
        <ele>1045</ele>
        <time>2020-06-21T20:35:56Z</time>
      </trkpt>
      <trkpt lat="47.10713" lon="6.76474">
        <ele>1044</ele>
        <time>2020-06-21T20:36:02Z</time>
      </trkpt>
      <trkpt lat="47.10706" lon="6.76447">
        <ele>1043</ele>
        <time>2020-06-21T20:36:06Z</time>
      </trkpt>
      <trkpt lat="47.10694" lon="6.76432">
        <ele>1043</ele>
        <time>2020-06-21T20:36:10Z</time>
      </trkpt>
      <trkpt lat="47.1068" lon="6.76425">
        <ele>1045</ele>
        <time>2020-06-21T20:36:13Z</time>
      </trkpt>
      <trkpt lat="47.10672" lon="6.76428">
        <ele>1046</ele>
        <time>2020-06-21T20:36:15Z</time>
      </trkpt>
      <trkpt lat="47.10667" lon="6.76437">
        <ele>1047</ele>
        <time>2020-06-21T20:36:17Z</time>
      </trkpt>
      <trkpt lat="47.10666" lon="6.76456">
        <ele>1049</ele>
        <time>2020-06-21T20:36:20Z</time>
      </trkpt>
      <trkpt lat="47.10686" lon="6.76529">
        <ele>1053</ele>
        <time>2020-06-21T20:36:33Z</time>
      </trkpt>
      <trkpt lat="47.1069" lon="6.76551">
        <ele>1056</ele>
        <time>2020-06-21T20:36:36Z</time>
      </trkpt>
      <trkpt lat="47.10708" lon="6.76602">
        <ele>1058</ele>
        <time>2020-06-21T20:36:45Z</time>
      </trkpt>
      <trkpt lat="47.1071" lon="6.76622">
        <ele>1059</ele>
        <time>2020-06-21T20:36:49Z</time>
      </trkpt>
      <trkpt lat="47.10703" lon="6.76653">
        <ele>1063</ele>
        <time>2020-06-21T20:36:54Z</time>
      </trkpt>
      <trkpt lat="47.10705" lon="6.76726">
        <ele>1062</ele>
        <time>2020-06-21T20:37:05Z</time>
      </trkpt>
      <trkpt lat="47.1069" lon="6.76804">
        <ele>1061</ele>
        <time>2020-06-21T20:37:18Z</time>
      </trkpt>
      <trkpt lat="47.1068" lon="6.76833">
        <ele>1061</ele>
        <time>2020-06-21T20:37:24Z</time>
      </trkpt>
      <trkpt lat="47.10671" lon="6.76892">
        <ele>1061</ele>
        <time>2020-06-21T20:37:33Z</time>
      </trkpt>
      <trkpt lat="47.10651" lon="6.76983">
        <ele>1062</ele>
        <time>2020-06-21T20:37:48Z</time>
      </trkpt>
      <trkpt lat="47.10644" lon="6.77003">
        <ele>1063</ele>
        <time>2020-06-21T20:37:52Z</time>
      </trkpt>
      <trkpt lat="47.10636" lon="6.77002">
        <ele>1065</ele>
        <time>2020-06-21T20:37:54Z</time>
      </trkpt>
      <trkpt lat="47.10624" lon="6.7698">
        <ele>1067</ele>
        <time>2020-06-21T20:37:58Z</time>
      </trkpt>
      <trkpt lat="47.10615" lon="6.76957">
        <ele>1068</ele>
        <time>2020-06-21T20:38:02Z</time>
      </trkpt>
      <trkpt lat="47.10584" lon="6.76907">
        <ele>1073</ele>
        <time>2020-06-21T20:38:13Z</time>
      </trkpt>
      <trkpt lat="47.10562" lon="6.76886">
        <ele>1077</ele>
        <time>2020-06-21T20:38:19Z</time>
      </trkpt>
      <trkpt lat="47.10524" lon="6.76828">
        <ele>1084</ele>
        <time>2020-06-21T20:38:32Z</time>
      </trkpt>
      <trkpt lat="47.10519" lon="6.76814">
        <ele>1085</ele>
        <time>2020-06-21T20:38:35Z</time>
      </trkpt>
      <trkpt lat="47.10514" lon="6.76731">
        <ele>1086</ele>
        <time>2020-06-21T20:38:48Z</time>
      </trkpt>
      <trkpt lat="47.10478" lon="6.76499">
        <ele>1086</ele>
        <time>2020-06-21T20:39:26Z</time>
      </trkpt>
      <trkpt lat="47.10462" lon="6.76452">
        <ele>1084</ele>
        <time>2020-06-21T20:39:34Z</time>
      </trkpt>
      <trkpt lat="47.10445" lon="6.76418">
        <ele>1084</ele>
        <time>2020-06-21T20:39:41Z</time>
      </trkpt>
      <trkpt lat="47.10409" lon="6.76332">
        <ele>1080</ele>
        <time>2020-06-21T20:39:57Z</time>
      </trkpt>
      <trkpt lat="47.10353" lon="6.76167">
        <ele>1085</ele>
        <time>2020-06-21T20:40:26Z</time>
      </trkpt>
      <trkpt lat="47.10345" lon="6.76132">
        <ele>1083</ele>
        <time>2020-06-21T20:40:32Z</time>
      </trkpt>
      <trkpt lat="47.103" lon="6.75993">
        <ele>1074</ele>
        <time>2020-06-21T20:40:56Z</time>
      </trkpt>
      <trkpt lat="47.10286" lon="6.7596">
        <ele>1072</ele>
        <time>2020-06-21T20:41:03Z</time>
      </trkpt>
      <trkpt lat="47.10266" lon="6.75926">
        <ele>1072</ele>
        <time>2020-06-21T20:41:10Z</time>
      </trkpt>
      <trkpt lat="47.10233" lon="6.75857">
        <ele>1072</ele>
        <time>2020-06-21T20:41:23Z</time>
      </trkpt>
      <trkpt lat="47.10211" lon="6.75825">
        <ele>1072</ele>
        <time>2020-06-21T20:41:30Z</time>
      </trkpt>
      <trkpt lat="47.10193" lon="6.75806">
        <ele>1073</ele>
        <time>2020-06-21T20:41:36Z</time>
      </trkpt>
      <trkpt lat="47.10176" lon="6.75773">
        <ele>1072</ele>
        <time>2020-06-21T20:41:42Z</time>
      </trkpt>
      <trkpt lat="47.1016" lon="6.75715">
        <ele>1071</ele>
        <time>2020-06-21T20:41:52Z</time>
      </trkpt>
      <trkpt lat="47.10125" lon="6.75635">
        <ele>1070</ele>
        <time>2020-06-21T20:42:07Z</time>
      </trkpt>
      <trkpt lat="47.10088" lon="6.75568">
        <ele>1071</ele>
        <time>2020-06-21T20:42:21Z</time>
      </trkpt>
      <trkpt lat="47.10032" lon="6.75492">
        <ele>1072</ele>
        <time>2020-06-21T20:42:39Z</time>
      </trkpt>
      <trkpt lat="47.10005" lon="6.75439">
        <ele>1069</ele>
        <time>2020-06-21T20:42:49Z</time>
      </trkpt>
      <trkpt lat="47.09997" lon="6.75442">
        <ele>1070</ele>
        <time>2020-06-21T20:42:51Z</time>
      </trkpt>
      <trkpt lat="47.09989" lon="6.75439">
        <ele>1068</ele>
        <time>2020-06-21T20:42:53Z</time>
      </trkpt>
      <trkpt lat="47.10002" lon="6.7544">
        <ele>1070</ele>
        <time>2020-06-21T20:42:56Z</time>
      </trkpt>
      <trkpt lat="47.10056" lon="6.75358">
        <ele>1048</ele>
        <time>2020-06-21T20:43:14Z</time>
      </trkpt>
      <trkpt lat="47.10127" lon="6.75298">
        <ele>1037</ele>
        <time>2020-06-21T20:43:33Z</time>
      </trkpt>
      <trkpt lat="47.10176" lon="6.75277">
        <ele>1036</ele>
        <time>2020-06-21T20:43:45Z</time>
      </trkpt>
      <trkpt lat="47.10205" lon="6.75246">
        <ele>1028</ele>
        <time>2020-06-21T20:43:54Z</time>
      </trkpt>
      <trkpt lat="47.1027" lon="6.75157">
        <ele>1013</ele>
        <time>2020-06-21T20:44:15Z</time>
      </trkpt>
      <trkpt lat="47.10275" lon="6.75144">
        <ele>1009</ele>
        <time>2020-06-21T20:44:17Z</time>
      </trkpt>
      <trkpt lat="47.10275" lon="6.75129">
        <ele>1005</ele>
        <time>2020-06-21T20:44:19Z</time>
      </trkpt>
      <trkpt lat="47.10299" lon="6.75082">
        <ele>996</ele>
        <time>2020-06-21T20:44:29Z</time>
      </trkpt>
      <trkpt lat="47.10306" lon="6.7505">
        <ele>989</ele>
        <time>2020-06-21T20:44:34Z</time>
      </trkpt>
      <trkpt lat="47.10309" lon="6.75018">
        <ele>981</ele>
        <time>2020-06-21T20:44:39Z</time>
      </trkpt>
      <trkpt lat="47.10315" lon="6.75005">
        <ele>980</ele>
        <time>2020-06-21T20:44:42Z</time>
      </trkpt>
      <trkpt lat="47.10323" lon="6.74999">
        <ele>982</ele>
        <time>2020-06-21T20:44:44Z</time>
      </trkpt>
      <trkpt lat="47.10328" lon="6.74986">
        <ele>982</ele>
        <time>2020-06-21T20:44:46Z</time>
      </trkpt>
      <trkpt lat="47.10385" lon="6.74947">
        <ele>979</ele>
        <time>2020-06-21T20:45:01Z</time>
      </trkpt>
      <trkpt lat="47.10409" lon="6.7494">
        <ele>980</ele>
        <time>2020-06-21T20:45:06Z</time>
      </trkpt>
      <trkpt lat="47.10415" lon="6.74927">
        <ele>981</ele>
        <time>2020-06-21T20:45:09Z</time>
      </trkpt>
      <trkpt lat="47.10413" lon="6.74902">
        <ele>977</ele>
        <time>2020-06-21T20:45:13Z</time>
      </trkpt>
      <trkpt lat="47.10403" lon="6.74854">
        <ele>965</ele>
        <time>2020-06-21T20:45:21Z</time>
      </trkpt>
      <trkpt lat="47.10414" lon="6.7485">
        <ele>965</ele>
        <time>2020-06-21T20:45:24Z</time>
      </trkpt>
      <trkpt lat="47.10475" lon="6.7489">
        <ele>961</ele>
        <time>2020-06-21T20:45:39Z</time>
      </trkpt>
      <trkpt lat="47.10491" lon="6.74907">
        <ele>959</ele>
        <time>2020-06-21T20:45:44Z</time>
      </trkpt>
      <trkpt lat="47.10505" lon="6.74914">
        <ele>956</ele>
        <time>2020-06-21T20:45:47Z</time>
      </trkpt>
      <trkpt lat="47.10536" lon="6.749">
        <ele>943</ele>
        <time>2020-06-21T20:45:55Z</time>
      </trkpt>
      <trkpt lat="47.10553" lon="6.74912">
        <ele>938</ele>
        <time>2020-06-21T20:45:59Z</time>
      </trkpt>
      <trkpt lat="47.10568" lon="6.74928">
        <ele>935</ele>
        <time>2020-06-21T20:46:04Z</time>
      </trkpt>
      <trkpt lat="47.10592" lon="6.74945">
        <ele>929</ele>
        <time>2020-06-21T20:46:10Z</time>
      </trkpt>
      <trkpt lat="47.10598" lon="6.7493">
        <ele>924</ele>
        <time>2020-06-21T20:46:13Z</time>
      </trkpt>
      <trkpt lat="47.10595" lon="6.74885">
        <ele>918</ele>
        <time>2020-06-21T20:46:20Z</time>
      </trkpt>
      <trkpt lat="47.10548" lon="6.74683">
        <ele>880</ele>
        <time>2020-06-21T20:46:54Z</time>
      </trkpt>
      <trkpt lat="47.10535" lon="6.74659">
        <ele>878</ele>
        <time>2020-06-21T20:46:59Z</time>
      </trkpt>
      <trkpt lat="47.10525" lon="6.74651">
        <ele>879</ele>
        <time>2020-06-21T20:47:01Z</time>
      </trkpt>
      <trkpt lat="47.10486" lon="6.746">
        <ele>871</ele>
        <time>2020-06-21T20:47:13Z</time>
      </trkpt>
      <trkpt lat="47.10463" lon="6.74582">
        <ele>867</ele>
        <time>2020-06-21T20:47:19Z</time>
      </trkpt>
      <trkpt lat="47.10419" lon="6.74568">
        <ele>867</ele>
        <time>2020-06-21T20:47:30Z</time>
      </trkpt>
      <trkpt lat="47.1043" lon="6.74563">
        <ele>865</ele>
        <time>2020-06-21T20:47:33Z</time>
      </trkpt>
      <trkpt lat="47.10451" lon="6.74565">
        <ele>864</ele>
        <time>2020-06-21T20:47:38Z</time>
      </trkpt>
      <trkpt lat="47.10503" lon="6.74555">
        <ele>859</ele>
        <time>2020-06-21T20:47:50Z</time>
      </trkpt>
      <trkpt lat="47.10519" lon="6.74556">
        <ele>855</ele>
        <time>2020-06-21T20:47:54Z</time>
      </trkpt>
      <trkpt lat="47.10539" lon="6.74564">
        <ele>852</ele>
        <time>2020-06-21T20:47:58Z</time>
      </trkpt>
      <trkpt lat="47.10571" lon="6.74584">
        <ele>845</ele>
        <time>2020-06-21T20:48:07Z</time>
      </trkpt>
      <trkpt lat="47.10597" lon="6.74606">
        <ele>845</ele>
        <time>2020-06-21T20:48:14Z</time>
      </trkpt>
      <trkpt lat="47.10656" lon="6.74674">
        <ele>842</ele>
        <time>2020-06-21T20:48:31Z</time>
      </trkpt>
      <trkpt lat="47.10689" lon="6.74726">
        <ele>846</ele>
        <time>2020-06-21T20:48:42Z</time>
      </trkpt>
      <trkpt lat="47.10746" lon="6.74835">
        <ele>847</ele>
        <time>2020-06-21T20:49:04Z</time>
      </trkpt>
      <trkpt lat="47.10768" lon="6.74882">
        <ele>845</ele>
        <time>2020-06-21T20:49:13Z</time>
      </trkpt>
      <trkpt lat="47.10804" lon="6.74944">
        <ele>839</ele>
        <time>2020-06-21T20:49:26Z</time>
      </trkpt>
      <trkpt lat="47.10807" lon="6.74961">
        <ele>839</ele>
        <time>2020-06-21T20:49:29Z</time>
      </trkpt>
      <trkpt lat="47.10799" lon="6.74994">
        <ele>846</ele>
        <time>2020-06-21T20:49:35Z</time>
      </trkpt>
      <trkpt lat="47.10797" lon="6.75034">
        <ele>849</ele>
        <time>2020-06-21T20:49:41Z</time>
      </trkpt>
      <trkpt lat="47.10801" lon="6.7508">
        <ele>847</ele>
        <time>2020-06-21T20:49:48Z</time>
      </trkpt>
      <trkpt lat="47.10821" lon="6.75152">
        <ele>847</ele>
        <time>2020-06-21T20:50:01Z</time>
      </trkpt>
      <trkpt lat="47.10846" lon="6.75227">
        <ele>847</ele>
        <time>2020-06-21T20:50:14Z</time>
      </trkpt>
      <trkpt lat="47.1086" lon="6.75286">
        <ele>851</ele>
        <time>2020-06-21T20:50:24Z</time>
      </trkpt>
      <trkpt lat="47.10868" lon="6.75309">
        <ele>852</ele>
        <time>2020-06-21T20:50:28Z</time>
      </trkpt>
      <trkpt lat="47.10887" lon="6.7535">
        <ele>850</ele>
        <time>2020-06-21T20:50:36Z</time>
      </trkpt>
      <trkpt lat="47.10909" lon="6.75345">
        <ele>839</ele>
        <time>2020-06-21T20:50:41Z</time>
      </trkpt>
      <trkpt lat="47.1093" lon="6.75365">
        <ele>836</ele>
        <time>2020-06-21T20:50:47Z</time>
      </trkpt>
      <trkpt lat="47.10942" lon="6.75366">
        <ele>834</ele>
        <time>2020-06-21T20:50:50Z</time>
      </trkpt>
      <trkpt lat="47.10952" lon="6.75355">
        <ele>830</ele>
        <time>2020-06-21T20:50:53Z</time>
      </trkpt>
      <trkpt lat="47.10994" lon="6.75287">
        <ele>820</ele>
        <time>2020-06-21T20:51:07Z</time>
      </trkpt>
      <trkpt lat="47.1102" lon="6.7526">
        <ele>818</ele>
        <time>2020-06-21T20:51:15Z</time>
      </trkpt>
      <trkpt lat="47.11032" lon="6.75266">
        <ele>817</ele>
        <time>2020-06-21T20:51:18Z</time>
      </trkpt>
      <trkpt lat="47.11069" lon="6.75309">
        <ele>817</ele>
        <time>2020-06-21T20:51:29Z</time>
      </trkpt>
      <trkpt lat="47.11081" lon="6.75327">
        <ele>818</ele>
        <time>2020-06-21T20:51:33Z</time>
      </trkpt>
      <trkpt lat="47.11101" lon="6.75369">
        <ele>818</ele>
        <time>2020-06-21T20:51:41Z</time>
      </trkpt>
      <trkpt lat="47.11111" lon="6.75379">
        <ele>817</ele>
        <time>2020-06-21T20:51:44Z</time>
      </trkpt>
      <trkpt lat="47.11137" lon="6.7537">
        <ele>815</ele>
        <time>2020-06-21T20:51:50Z</time>
      </trkpt>
      <trkpt lat="47.11184" lon="6.75373">
        <ele>811</ele>
        <time>2020-06-21T20:52:01Z</time>
      </trkpt>
      <trkpt lat="47.11197" lon="6.75371">
        <ele>810</ele>
        <time>2020-06-21T20:52:04Z</time>
      </trkpt>
      <trkpt lat="47.11219" lon="6.75358">
        <ele>806</ele>
        <time>2020-06-21T20:52:09Z</time>
      </trkpt>
      <trkpt lat="47.11222" lon="6.75341">
        <ele>804</ele>
        <time>2020-06-21T20:52:12Z</time>
      </trkpt>
      <trkpt lat="47.11223" lon="6.7528">
        <ele>791</ele>
        <time>2020-06-21T20:52:22Z</time>
      </trkpt>
      <trkpt lat="47.112" lon="6.75219">
        <ele>783</ele>
        <time>2020-06-21T20:52:33Z</time>
      </trkpt>
      <trkpt lat="47.11095" lon="6.7499">
        <ele>741</ele>
        <time>2020-06-21T20:53:17Z</time>
      </trkpt>
      <trkpt lat="47.11055" lon="6.74923">
        <ele>734</ele>
        <time>2020-06-21T20:53:31Z</time>
      </trkpt>
      <trkpt lat="47.11035" lon="6.74882">
        <ele>726</ele>
        <time>2020-06-21T20:53:39Z</time>
      </trkpt>
      <trkpt lat="47.1102" lon="6.74859">
        <ele>723</ele>
        <time>2020-06-21T20:53:44Z</time>
      </trkpt>
      <trkpt lat="47.10968" lon="6.74834">
        <ele>737</ele>
        <time>2020-06-21T20:53:57Z</time>
      </trkpt>
      <trkpt lat="47.10963" lon="6.74828">
        <ele>737</ele>
        <time>2020-06-21T20:53:58Z</time>
      </trkpt>
      <trkpt lat="47.10947" lon="6.7479">
        <ele>735</ele>
        <time>2020-06-21T20:54:06Z</time>
      </trkpt>
      <trkpt lat="47.10953" lon="6.74758">
        <ele>723</ele>
        <time>2020-06-21T20:54:11Z</time>
      </trkpt>
      <trkpt lat="47.10921" lon="6.74683">
        <ele>733</ele>
        <time>2020-06-21T20:54:25Z</time>
      </trkpt>
      <trkpt lat="47.10921" lon="6.74653">
        <ele>731</ele>
        <time>2020-06-21T20:54:30Z</time>
      </trkpt>
      <trkpt lat="47.10933" lon="6.74657">
        <ele>724</ele>
        <time>2020-06-21T20:54:33Z</time>
      </trkpt>
      <trkpt lat="47.10938" lon="6.74665">
        <ele>721</ele>
        <time>2020-06-21T20:54:34Z</time>
      </trkpt>
      <trkpt lat="47.10942" lon="6.74659">
        <ele>719</ele>
        <time>2020-06-21T20:54:36Z</time>
      </trkpt>
      <trkpt lat="47.10946" lon="6.74623">
        <ele>718</ele>
        <time>2020-06-21T20:54:41Z</time>
      </trkpt>
      <trkpt lat="47.10951" lon="6.74639">
        <ele>715</ele>
        <time>2020-06-21T20:54:44Z</time>
      </trkpt>
      <trkpt lat="47.10953" lon="6.74669">
        <ele>713</ele>
        <time>2020-06-21T20:54:49Z</time>
      </trkpt>
      <trkpt lat="47.10958" lon="6.74684">
        <ele>712</ele>
        <time>2020-06-21T20:54:52Z</time>
      </trkpt>
      <trkpt lat="47.10957" lon="6.74694">
        <ele>713</ele>
        <time>2020-06-21T20:54:53Z</time>
      </trkpt>
      <trkpt lat="47.10976" lon="6.74739">
        <ele>703</ele>
        <time>2020-06-21T20:55:02Z</time>
      </trkpt>
      <trkpt lat="47.11041" lon="6.74823">
        <ele>697</ele>
        <time>2020-06-21T20:55:22Z</time>
      </trkpt>
      <trkpt lat="47.11076" lon="6.74858">
        <ele>690</ele>
        <time>2020-06-21T20:55:32Z</time>
      </trkpt>
      <trkpt lat="47.11092" lon="6.7488">
        <ele>695</ele>
        <time>2020-06-21T20:55:37Z</time>
      </trkpt>
      <trkpt lat="47.11123" lon="6.74944">
        <ele>702</ele>
        <time>2020-06-21T20:55:49Z</time>
      </trkpt>
      <trkpt lat="47.11137" lon="6.74964">
        <ele>702</ele>
        <time>2020-06-21T20:55:54Z</time>
      </trkpt>
      <trkpt lat="47.1117" lon="6.74989">
        <ele>692</ele>
        <time>2020-06-21T20:56:03Z</time>
      </trkpt>
      <trkpt lat="47.11217" lon="6.75">
        <ele>685</ele>
        <time>2020-06-21T20:56:14Z</time>
      </trkpt>
      <trkpt lat="47.11243" lon="6.75022">
        <ele>684</ele>
        <time>2020-06-21T20:56:21Z</time>
      </trkpt>
      <trkpt lat="47.11295" lon="6.75048">
        <ele>691</ele>
        <time>2020-06-21T20:56:34Z</time>
      </trkpt>
      <trkpt lat="47.11315" lon="6.75064">
        <ele>688</ele>
        <time>2020-06-21T20:56:39Z</time>
      </trkpt>
      <trkpt lat="47.1132" lon="6.7508">
        <ele>682</ele>
        <time>2020-06-21T20:56:42Z</time>
      </trkpt>
      <trkpt lat="47.11328" lon="6.75092">
        <ele>683</ele>
        <time>2020-06-21T20:56:44Z</time>
      </trkpt>
      <trkpt lat="47.11338" lon="6.751">
        <ele>685</ele>
        <time>2020-06-21T20:56:47Z</time>
      </trkpt>
      <trkpt lat="47.11349" lon="6.751">
        <ele>687</ele>
        <time>2020-06-21T20:56:50Z</time>
      </trkpt>
      <trkpt lat="47.1137" lon="6.75118">
        <ele>691</ele>
        <time>2020-06-21T20:56:55Z</time>
      </trkpt>
      <trkpt lat="47.11393" lon="6.75154">
        <ele>687</ele>
        <time>2020-06-21T20:57:03Z</time>
      </trkpt>
      <trkpt lat="47.11409" lon="6.75203">
        <ele>693</ele>
        <time>2020-06-21T20:57:12Z</time>
      </trkpt>
      <trkpt lat="47.11446" lon="6.75255">
        <ele>702</ele>
        <time>2020-06-21T20:57:24Z</time>
      </trkpt>
      <trkpt lat="47.11452" lon="6.7527">
        <ele>703</ele>
        <time>2020-06-21T20:57:26Z</time>
      </trkpt>
      <trkpt lat="47.1147" lon="6.75292">
        <ele>699</ele>
        <time>2020-06-21T20:57:32Z</time>
      </trkpt>
      <trkpt lat="47.11482" lon="6.7532">
        <ele>694</ele>
        <time>2020-06-21T20:57:37Z</time>
      </trkpt>
      <trkpt lat="47.11481" lon="6.75336">
        <ele>695</ele>
        <time>2020-06-21T20:57:40Z</time>
      </trkpt>
      <trkpt lat="47.11483" lon="6.75348">
        <ele>696</ele>
        <time>2020-06-21T20:57:42Z</time>
      </trkpt>
      <trkpt lat="47.1149" lon="6.75363">
        <ele>694</ele>
        <time>2020-06-21T20:57:45Z</time>
      </trkpt>
      <trkpt lat="47.11499" lon="6.75371">
        <ele>689</ele>
        <time>2020-06-21T20:57:47Z</time>
      </trkpt>
      <trkpt lat="47.1152" lon="6.75379">
        <ele>697</ele>
        <time>2020-06-21T20:57:52Z</time>
      </trkpt>
      <trkpt lat="47.1153" lon="6.75387">
        <ele>700</ele>
        <time>2020-06-21T20:57:55Z</time>
      </trkpt>
      <trkpt lat="47.11565" lon="6.75429">
        <ele>703</ele>
        <time>2020-06-21T20:58:05Z</time>
      </trkpt>
      <trkpt lat="47.11565" lon="6.75446">
        <ele>699</ele>
        <time>2020-06-21T20:58:08Z</time>
      </trkpt>
      <trkpt lat="47.11552" lon="6.75478">
        <ele>695</ele>
        <time>2020-06-21T20:58:14Z</time>
      </trkpt>
      <trkpt lat="47.11551" lon="6.75508">
        <ele>693</ele>
        <time>2020-06-21T20:58:19Z</time>
      </trkpt>
      <trkpt lat="47.11556" lon="6.75521">
        <ele>693</ele>
        <time>2020-06-21T20:58:21Z</time>
      </trkpt>
      <trkpt lat="47.11558" lon="6.75538">
        <ele>694</ele>
        <time>2020-06-21T20:58:24Z</time>
      </trkpt>
      <trkpt lat="47.11578" lon="6.75573">
        <ele>686</ele>
        <time>2020-06-21T20:58:31Z</time>
      </trkpt>
      <trkpt lat="47.11594" lon="6.75593">
        <ele>687</ele>
        <time>2020-06-21T20:58:36Z</time>
      </trkpt>
      <trkpt lat="47.116" lon="6.75607">
        <ele>693</ele>
        <time>2020-06-21T20:58:39Z</time>
      </trkpt>
      <trkpt lat="47.11622" lon="6.75638">
        <ele>699</ele>
        <time>2020-06-21T20:58:46Z</time>
      </trkpt>
      <trkpt lat="47.11647" lon="6.75663">
        <ele>694</ele>
        <time>2020-06-21T20:58:53Z</time>
      </trkpt>
      <trkpt lat="47.1167" lon="6.75691">
        <ele>695</ele>
        <time>2020-06-21T20:59:00Z</time>
      </trkpt>
      <trkpt lat="47.11695" lon="6.75741">
        <ele>702</ele>
        <time>2020-06-21T20:59:10Z</time>
      </trkpt>
      <trkpt lat="47.11699" lon="6.75756">
        <ele>703</ele>
        <time>2020-06-21T20:59:12Z</time>
      </trkpt>
      <trkpt lat="47.11706" lon="6.75767">
        <ele>701</ele>
        <time>2020-06-21T20:59:15Z</time>
      </trkpt>
      <trkpt lat="47.11714" lon="6.75805">
        <ele>701</ele>
        <time>2020-06-21T20:59:21Z</time>
      </trkpt>
      <trkpt lat="47.11714" lon="6.75819">
        <ele>703</ele>
        <time>2020-06-21T20:59:23Z</time>
      </trkpt>
      <trkpt lat="47.11719" lon="6.75832">
        <ele>701</ele>
        <time>2020-06-21T20:59:26Z</time>
      </trkpt>
      <trkpt lat="47.11723" lon="6.75876">
        <ele>710</ele>
        <time>2020-06-21T20:59:33Z</time>
      </trkpt>
      <trkpt lat="47.11729" lon="6.75906">
        <ele>713</ele>
        <time>2020-06-21T20:59:38Z</time>
      </trkpt>
      <trkpt lat="47.11755" lon="6.75966">
        <ele>714</ele>
        <time>2020-06-21T20:59:49Z</time>
      </trkpt>
      <trkpt lat="47.11764" lon="6.75978">
        <ele>713</ele>
        <time>2020-06-21T20:59:52Z</time>
      </trkpt>
      <trkpt lat="47.11783" lon="6.7599">
        <ele>703</ele>
        <time>2020-06-21T20:59:57Z</time>
      </trkpt>
      <trkpt lat="47.11796" lon="6.76007">
        <ele>697</ele>
        <time>2020-06-21T21:00:01Z</time>
      </trkpt>
      <trkpt lat="47.11822" lon="6.76057">
        <ele>682</ele>
        <time>2020-06-21T21:00:11Z</time>
      </trkpt>
      <trkpt lat="47.1183" lon="6.76082">
        <ele>677</ele>
        <time>2020-06-21T21:00:15Z</time>
      </trkpt>
      <trkpt lat="47.11836" lon="6.7609">
        <ele>677</ele>
        <time>2020-06-21T21:00:17Z</time>
      </trkpt>
      <trkpt lat="47.11847" lon="6.76128">
        <ele>693</ele>
        <time>2020-06-21T21:00:23Z</time>
      </trkpt>
      <trkpt lat="47.11856" lon="6.76142">
        <ele>696</ele>
        <time>2020-06-21T21:00:26Z</time>
      </trkpt>
      <trkpt lat="47.11868" lon="6.76175">
        <ele>701</ele>
        <time>2020-06-21T21:00:32Z</time>
      </trkpt>
      <trkpt lat="47.11884" lon="6.76234">
        <ele>703</ele>
        <time>2020-06-21T21:00:43Z</time>
      </trkpt>
      <trkpt lat="47.11909" lon="6.76286">
        <ele>693</ele>
        <time>2020-06-21T21:00:53Z</time>
      </trkpt>
      <trkpt lat="47.11914" lon="6.76303">
        <ele>693</ele>
        <time>2020-06-21T21:00:56Z</time>
      </trkpt>
      <trkpt lat="47.11932" lon="6.76324">
        <ele>690</ele>
        <time>2020-06-21T21:01:01Z</time>
      </trkpt>
      <trkpt lat="47.11941" lon="6.76356">
        <ele>693</ele>
        <time>2020-06-21T21:01:06Z</time>
      </trkpt>
      <trkpt lat="47.1195" lon="6.76377">
        <ele>692</ele>
        <time>2020-06-21T21:01:10Z</time>
      </trkpt>
      <trkpt lat="47.12006" lon="6.76465">
        <ele>670</ele>
        <time>2020-06-21T21:01:30Z</time>
      </trkpt>
      <trkpt lat="47.12022" lon="6.76498">
        <ele>682</ele>
        <time>2020-06-21T21:01:36Z</time>
      </trkpt>
      <trkpt lat="47.12051" lon="6.76581">
        <ele>680</ele>
        <time>2020-06-21T21:01:51Z</time>
      </trkpt>
      <trkpt lat="47.121" lon="6.76747">
        <ele>670</ele>
        <time>2020-06-21T21:02:20Z</time>
      </trkpt>
      <trkpt lat="47.12105" lon="6.76769">
        <ele>674</ele>
        <time>2020-06-21T21:02:23Z</time>
      </trkpt>
      <trkpt lat="47.12114" lon="6.76893">
        <ele>682</ele>
        <time>2020-06-21T21:02:43Z</time>
      </trkpt>
      <trkpt lat="47.12113" lon="6.76911">
        <ele>681</ele>
        <time>2020-06-21T21:02:46Z</time>
      </trkpt>
      <trkpt lat="47.12126" lon="6.77007">
        <ele>686</ele>
        <time>2020-06-21T21:03:01Z</time>
      </trkpt>
      <trkpt lat="47.12147" lon="6.77069">
        <ele>673</ele>
        <time>2020-06-21T21:03:12Z</time>
      </trkpt>
      <trkpt lat="47.12148" lon="6.77084">
        <ele>671</ele>
        <time>2020-06-21T21:03:15Z</time>
      </trkpt>
      <trkpt lat="47.12139" lon="6.77109">
        <ele>673</ele>
        <time>2020-06-21T21:03:19Z</time>
      </trkpt>
      <trkpt lat="47.12144" lon="6.77139">
        <ele>669</ele>
        <time>2020-06-21T21:03:24Z</time>
      </trkpt>
      <trkpt lat="47.12144" lon="6.77189">
        <ele>665</ele>
        <time>2020-06-21T21:03:32Z</time>
      </trkpt>
      <trkpt lat="47.12141" lon="6.7722">
        <ele>663</ele>
        <time>2020-06-21T21:03:37Z</time>
      </trkpt>
      <trkpt lat="47.12149" lon="6.77289">
        <ele>666</ele>
        <time>2020-06-21T21:03:48Z</time>
      </trkpt>
      <trkpt lat="47.12147" lon="6.77303">
        <ele>669</ele>
        <time>2020-06-21T21:03:51Z</time>
      </trkpt>
      <trkpt lat="47.12152" lon="6.77318">
        <ele>672</ele>
        <time>2020-06-21T21:03:53Z</time>
      </trkpt>
      <trkpt lat="47.12167" lon="6.7734">
        <ele>679</ele>
        <time>2020-06-21T21:03:58Z</time>
      </trkpt>
      <trkpt lat="47.12165" lon="6.77355">
        <ele>681</ele>
        <time>2020-06-21T21:04:01Z</time>
      </trkpt>
      <trkpt lat="47.12142" lon="6.77378">
        <ele>679</ele>
        <time>2020-06-21T21:04:07Z</time>
      </trkpt>
      <trkpt lat="47.12126" lon="6.77383">
        <ele>675</ele>
        <time>2020-06-21T21:04:11Z</time>
      </trkpt>
      <trkpt lat="47.12119" lon="6.77399">
        <ele>674</ele>
        <time>2020-06-21T21:04:14Z</time>
      </trkpt>
      <trkpt lat="47.12124" lon="6.77412">
        <ele>676</ele>
        <time>2020-06-21T21:04:16Z</time>
      </trkpt>
      <trkpt lat="47.12129" lon="6.77441">
        <ele>679</ele>
        <time>2020-06-21T21:04:21Z</time>
      </trkpt>
      <trkpt lat="47.12119" lon="6.77445">
        <ele>676</ele>
        <time>2020-06-21T21:04:24Z</time>
      </trkpt>
      <trkpt lat="47.12119" lon="6.77467">
        <ele>678</ele>
        <time>2020-06-21T21:04:27Z</time>
      </trkpt>
      <trkpt lat="47.12117" lon="6.77474">
        <ele>678</ele>
        <time>2020-06-21T21:04:28Z</time>
      </trkpt>
      <trkpt lat="47.1212" lon="6.77561">
        <ele>676</ele>
        <time>2020-06-21T21:04:42Z</time>
      </trkpt>
      <trkpt lat="47.12129" lon="6.77614">
        <ele>669</ele>
        <time>2020-06-21T21:04:51Z</time>
      </trkpt>
      <trkpt lat="47.12147" lon="6.77672">
        <ele>651</ele>
        <time>2020-06-21T21:05:01Z</time>
      </trkpt>
      <trkpt lat="47.12168" lon="6.77719">
        <ele>647</ele>
        <time>2020-06-21T21:05:10Z</time>
      </trkpt>
      <trkpt lat="47.12192" lon="6.77756">
        <ele>651</ele>
        <time>2020-06-21T21:05:18Z</time>
      </trkpt>
      <trkpt lat="47.1221" lon="6.77777">
        <ele>652</ele>
        <time>2020-06-21T21:05:23Z</time>
      </trkpt>
      <trkpt lat="47.12243" lon="6.77801">
        <ele>646</ele>
        <time>2020-06-21T21:05:32Z</time>
      </trkpt>
      <trkpt lat="47.12283" lon="6.77838">
        <ele>648</ele>
        <time>2020-06-21T21:05:43Z</time>
      </trkpt>
      <trkpt lat="47.12315" lon="6.77877">
        <ele>649</ele>
        <time>2020-06-21T21:05:53Z</time>
      </trkpt>
      <trkpt lat="47.12349" lon="6.77937">
        <ele>648</ele>
        <time>2020-06-21T21:06:05Z</time>
      </trkpt>
      <trkpt lat="47.1236" lon="6.77964">
        <ele>653</ele>
        <time>2020-06-21T21:06:10Z</time>
      </trkpt>
      <trkpt lat="47.12372" lon="6.78018">
        <ele>657</ele>
        <time>2020-06-21T21:06:19Z</time>
      </trkpt>
      <trkpt lat="47.12371" lon="6.78072">
        <ele>665</ele>
        <time>2020-06-21T21:06:28Z</time>
      </trkpt>
      <trkpt lat="47.12376" lon="6.78089">
        <ele>665</ele>
        <time>2020-06-21T21:06:31Z</time>
      </trkpt>
      <trkpt lat="47.12386" lon="6.78165">
        <ele>666</ele>
        <time>2020-06-21T21:06:43Z</time>
      </trkpt>
      <trkpt lat="47.12392" lon="6.78267">
        <ele>669</ele>
        <time>2020-06-21T21:06:59Z</time>
      </trkpt>
      <trkpt lat="47.12409" lon="6.78336">
        <ele>661</ele>
        <time>2020-06-21T21:07:11Z</time>
      </trkpt>
      <trkpt lat="47.12428" lon="6.78372">
        <ele>661</ele>
        <time>2020-06-21T21:07:18Z</time>
      </trkpt>
      <trkpt lat="47.12471" lon="6.78511">
        <ele>659</ele>
        <time>2020-06-21T21:07:42Z</time>
      </trkpt>
      <trkpt lat="47.12502" lon="6.78635">
        <ele>654</ele>
        <time>2020-06-21T21:08:03Z</time>
      </trkpt>
      <trkpt lat="47.12531" lon="6.78735">
        <ele>662</ele>
        <time>2020-06-21T21:08:21Z</time>
      </trkpt>
      <trkpt lat="47.12544" lon="6.78769">
        <ele>659</ele>
        <time>2020-06-21T21:08:27Z</time>
      </trkpt>
      <trkpt lat="47.12553" lon="6.78815">
        <ele>659</ele>
        <time>2020-06-21T21:08:34Z</time>
      </trkpt>
      <trkpt lat="47.12573" lon="6.78864">
        <ele>652</ele>
        <time>2020-06-21T21:08:43Z</time>
      </trkpt>
      <trkpt lat="47.12589" lon="6.78963">
        <ele>657</ele>
        <time>2020-06-21T21:09:00Z</time>
      </trkpt>
      <trkpt lat="47.12598" lon="6.78991">
        <ele>660</ele>
        <time>2020-06-21T21:09:05Z</time>
      </trkpt>
      <trkpt lat="47.12612" lon="6.79061">
        <ele>663</ele>
        <time>2020-06-21T21:09:16Z</time>
      </trkpt>
      <trkpt lat="47.12626" lon="6.7909">
        <ele>658</ele>
        <time>2020-06-21T21:09:22Z</time>
      </trkpt>
      <trkpt lat="47.12636" lon="6.79153">
        <ele>651</ele>
        <time>2020-06-21T21:09:32Z</time>
      </trkpt>
      <trkpt lat="47.12675" lon="6.79264">
        <ele>648</ele>
        <time>2020-06-21T21:09:52Z</time>
      </trkpt>
      <trkpt lat="47.12684" lon="6.79278">
        <ele>651</ele>
        <time>2020-06-21T21:09:55Z</time>
      </trkpt>
      <trkpt lat="47.12693" lon="6.79305">
        <ele>653</ele>
        <time>2020-06-21T21:10:00Z</time>
      </trkpt>
      <trkpt lat="47.12698" lon="6.79336">
        <ele>655</ele>
        <time>2020-06-21T21:10:05Z</time>
      </trkpt>
      <trkpt lat="47.12735" lon="6.79415">
        <ele>650</ele>
        <time>2020-06-21T21:10:20Z</time>
      </trkpt>
      <trkpt lat="47.12739" lon="6.7943">
        <ele>652</ele>
        <time>2020-06-21T21:10:23Z</time>
      </trkpt>
      <trkpt lat="47.12793" lon="6.79517">
        <ele>656</ele>
        <time>2020-06-21T21:10:41Z</time>
      </trkpt>
      <trkpt lat="47.12812" lon="6.79543">
        <ele>651</ele>
        <time>2020-06-21T21:10:47Z</time>
      </trkpt>
      <trkpt lat="47.12847" lon="6.79619">
        <ele>650</ele>
        <time>2020-06-21T21:11:02Z</time>
      </trkpt>
      <trkpt lat="47.12878" lon="6.79709">
        <ele>656</ele>
        <time>2020-06-21T21:11:18Z</time>
      </trkpt>
      <trkpt lat="47.12887" lon="6.79743">
        <ele>654</ele>
        <time>2020-06-21T21:11:24Z</time>
      </trkpt>
      <trkpt lat="47.12895" lon="6.79796">
        <ele>651</ele>
        <time>2020-06-21T21:11:32Z</time>
      </trkpt>
      <trkpt lat="47.12896" lon="6.79825">
        <ele>652</ele>
        <time>2020-06-21T21:11:37Z</time>
      </trkpt>
      <trkpt lat="47.12885" lon="6.79854">
        <ele>659</ele>
        <time>2020-06-21T21:11:42Z</time>
      </trkpt>
      <trkpt lat="47.12882" lon="6.79898">
        <ele>661</ele>
        <time>2020-06-21T21:11:49Z</time>
      </trkpt>
      <trkpt lat="47.12885" lon="6.79935">
        <ele>660</ele>
        <time>2020-06-21T21:11:55Z</time>
      </trkpt>
      <trkpt lat="47.12883" lon="6.79986">
        <ele>662</ele>
        <time>2020-06-21T21:12:03Z</time>
      </trkpt>
      <trkpt lat="47.12885" lon="6.80043">
        <ele>665</ele>
        <time>2020-06-21T21:12:12Z</time>
      </trkpt>
      <trkpt lat="47.12883" lon="6.80061">
        <ele>668</ele>
        <time>2020-06-21T21:12:15Z</time>
      </trkpt>
      <trkpt lat="47.12885" lon="6.80098">
        <ele>670</ele>
        <time>2020-06-21T21:12:21Z</time>
      </trkpt>
      <trkpt lat="47.12892" lon="6.80152">
        <ele>667</ele>
        <time>2020-06-21T21:12:30Z</time>
      </trkpt>
      <trkpt lat="47.12897" lon="6.8017">
        <ele>665</ele>
        <time>2020-06-21T21:12:33Z</time>
      </trkpt>
      <trkpt lat="47.12909" lon="6.80191">
        <ele>659</ele>
        <time>2020-06-21T21:12:37Z</time>
      </trkpt>
      <trkpt lat="47.12922" lon="6.80238">
        <ele>657</ele>
        <time>2020-06-21T21:12:46Z</time>
      </trkpt>
      <trkpt lat="47.12973" lon="6.80344">
        <ele>649</ele>
        <time>2020-06-21T21:13:06Z</time>
      </trkpt>
      <trkpt lat="47.12978" lon="6.80395">
        <ele>656</ele>
        <time>2020-06-21T21:13:14Z</time>
      </trkpt>
      <trkpt lat="47.12991" lon="6.80432">
        <ele>652</ele>
        <time>2020-06-21T21:13:21Z</time>
      </trkpt>
      <trkpt lat="47.13004" lon="6.80502">
        <ele>654</ele>
        <time>2020-06-21T21:13:32Z</time>
      </trkpt>
      <trkpt lat="47.13034" lon="6.80588">
        <ele>649</ele>
        <time>2020-06-21T21:13:48Z</time>
      </trkpt>
      <trkpt lat="47.13048" lon="6.80619">
        <ele>651</ele>
        <time>2020-06-21T21:13:54Z</time>
      </trkpt>
      <trkpt lat="47.13056" lon="6.80644">
        <ele>652</ele>
        <time>2020-06-21T21:13:58Z</time>
      </trkpt>
      <trkpt lat="47.13064" lon="6.80658">
        <ele>651</ele>
        <time>2020-06-21T21:14:01Z</time>
      </trkpt>
      <trkpt lat="47.13102" lon="6.80687">
        <ele>650</ele>
        <time>2020-06-21T21:14:11Z</time>
      </trkpt>
      <trkpt lat="47.13113" lon="6.80689">
        <ele>648</ele>
        <time>2020-06-21T21:14:14Z</time>
      </trkpt>
      <trkpt lat="47.13134" lon="6.80709">
        <ele>648</ele>
        <time>2020-06-21T21:14:19Z</time>
      </trkpt>
      <trkpt lat="47.1317" lon="6.80731">
        <ele>638</ele>
        <time>2020-06-21T21:14:29Z</time>
      </trkpt>
      <trkpt lat="47.1323" lon="6.80732">
        <ele>636</ele>
        <time>2020-06-21T21:14:43Z</time>
      </trkpt>
      <trkpt lat="47.13265" lon="6.80739">
        <ele>634</ele>
        <time>2020-06-21T21:14:51Z</time>
      </trkpt>
      <trkpt lat="47.13274" lon="6.80745">
        <ele>633</ele>
        <time>2020-06-21T21:14:53Z</time>
      </trkpt>
      <trkpt lat="47.13299" lon="6.80746">
        <ele>632</ele>
        <time>2020-06-21T21:14:59Z</time>
      </trkpt>
      <trkpt lat="47.1331" lon="6.80751">
        <ele>632</ele>
        <time>2020-06-21T21:15:02Z</time>
      </trkpt>
      <trkpt lat="47.13335" lon="6.80752">
        <ele>632</ele>
        <time>2020-06-21T21:15:07Z</time>
      </trkpt>
      <trkpt lat="47.13392" lon="6.80762">
        <ele>632</ele>
        <time>2020-06-21T21:15:21Z</time>
      </trkpt>
      <trkpt lat="47.13403" lon="6.80761">
        <ele>631</ele>
        <time>2020-06-21T21:15:23Z</time>
      </trkpt>
      <trkpt lat="47.13426" lon="6.80772">
        <ele>632</ele>
        <time>2020-06-21T21:15:29Z</time>
      </trkpt>
      <trkpt lat="47.13451" lon="6.80794">
        <ele>634</ele>
        <time>2020-06-21T21:15:36Z</time>
      </trkpt>
      <trkpt lat="47.13473" lon="6.80829">
        <ele>633</ele>
        <time>2020-06-21T21:15:44Z</time>
      </trkpt>
      <trkpt lat="47.13508" lon="6.80922">
        <ele>642</ele>
        <time>2020-06-21T21:16:00Z</time>
      </trkpt>
      <trkpt lat="47.13527" lon="6.80994">
        <ele>645</ele>
        <time>2020-06-21T21:16:13Z</time>
      </trkpt>
      <trkpt lat="47.13521" lon="6.81069">
        <ele>649</ele>
        <time>2020-06-21T21:16:25Z</time>
      </trkpt>
      <trkpt lat="47.13522" lon="6.81083">
        <ele>649</ele>
        <time>2020-06-21T21:16:27Z</time>
      </trkpt>
      <trkpt lat="47.1351" lon="6.81132">
        <ele>653</ele>
        <time>2020-06-21T21:16:35Z</time>
      </trkpt>
      <trkpt lat="47.13511" lon="6.81154">
        <ele>654</ele>
        <time>2020-06-21T21:16:39Z</time>
      </trkpt>
      <trkpt lat="47.13516" lon="6.81184">
        <ele>654</ele>
        <time>2020-06-21T21:16:44Z</time>
      </trkpt>
      <trkpt lat="47.13508" lon="6.81218">
        <ele>655</ele>
        <time>2020-06-21T21:16:49Z</time>
      </trkpt>
      <trkpt lat="47.13508" lon="6.81237">
        <ele>655</ele>
        <time>2020-06-21T21:16:52Z</time>
      </trkpt>
      <trkpt lat="47.13502" lon="6.81293">
        <ele>661</ele>
        <time>2020-06-21T21:17:01Z</time>
      </trkpt>
      <trkpt lat="47.13503" lon="6.81303">
        <ele>661</ele>
        <time>2020-06-21T21:17:03Z</time>
      </trkpt>
      <trkpt lat="47.13517" lon="6.81346">
        <ele>660</ele>
        <time>2020-06-21T21:17:10Z</time>
      </trkpt>
      <trkpt lat="47.13519" lon="6.81393">
        <ele>659</ele>
        <time>2020-06-21T21:17:18Z</time>
      </trkpt>
      <trkpt lat="47.13523" lon="6.81409">
        <ele>657</ele>
        <time>2020-06-21T21:17:21Z</time>
      </trkpt>
      <trkpt lat="47.13531" lon="6.81482">
        <ele>653</ele>
        <time>2020-06-21T21:17:32Z</time>
      </trkpt>
      <trkpt lat="47.13544" lon="6.81516">
        <ele>647</ele>
        <time>2020-06-21T21:17:39Z</time>
      </trkpt>
      <trkpt lat="47.1355" lon="6.81541">
        <ele>646</ele>
        <time>2020-06-21T21:17:43Z</time>
      </trkpt>
      <trkpt lat="47.13549" lon="6.81558">
        <ele>648</ele>
        <time>2020-06-21T21:17:46Z</time>
      </trkpt>
      <trkpt lat="47.13555" lon="6.81571">
        <ele>646</ele>
        <time>2020-06-21T21:17:48Z</time>
      </trkpt>
      <trkpt lat="47.13565" lon="6.81576">
        <ele>642</ele>
        <time>2020-06-21T21:17:51Z</time>
      </trkpt>
      <trkpt lat="47.13574" lon="6.81589">
        <ele>640</ele>
        <time>2020-06-21T21:17:53Z</time>
      </trkpt>
      <trkpt lat="47.13598" lon="6.81602">
        <ele>639</ele>
        <time>2020-06-21T21:17:59Z</time>
      </trkpt>
      <trkpt lat="47.13608" lon="6.81611">
        <ele>641</ele>
        <time>2020-06-21T21:18:02Z</time>
      </trkpt>
      <trkpt lat="47.13624" lon="6.81634">
        <ele>642</ele>
        <time>2020-06-21T21:18:07Z</time>
      </trkpt>
      <trkpt lat="47.13633" lon="6.8164">
        <ele>640</ele>
        <time>2020-06-21T21:18:10Z</time>
      </trkpt>
      <trkpt lat="47.13635" lon="6.81657">
        <ele>641</ele>
        <time>2020-06-21T21:18:12Z</time>
      </trkpt>
      <trkpt lat="47.13655" lon="6.81672">
        <ele>635</ele>
        <time>2020-06-21T21:18:18Z</time>
      </trkpt>
      <trkpt lat="47.13672" lon="6.81692">
        <ele>638</ele>
        <time>2020-06-21T21:18:23Z</time>
      </trkpt>
      <trkpt lat="47.13701" lon="6.81709">
        <ele>642</ele>
        <time>2020-06-21T21:18:30Z</time>
      </trkpt>
      <trkpt lat="47.13735" lon="6.81754">
        <ele>643</ele>
        <time>2020-06-21T21:18:41Z</time>
      </trkpt>
      <trkpt lat="47.13757" lon="6.81775">
        <ele>646</ele>
        <time>2020-06-21T21:18:47Z</time>
      </trkpt>
      <trkpt lat="47.13776" lon="6.81799">
        <ele>651</ele>
        <time>2020-06-21T21:18:53Z</time>
      </trkpt>
      <trkpt lat="47.13831" lon="6.81841">
        <ele>646</ele>
        <time>2020-06-21T21:19:07Z</time>
      </trkpt>
      <trkpt lat="47.13855" lon="6.81851">
        <ele>645</ele>
        <time>2020-06-21T21:19:13Z</time>
      </trkpt>
      <trkpt lat="47.13881" lon="6.81876">
        <ele>647</ele>
        <time>2020-06-21T21:19:20Z</time>
      </trkpt>
      <trkpt lat="47.13917" lon="6.81899">
        <ele>642</ele>
        <time>2020-06-21T21:19:29Z</time>
      </trkpt>
      <trkpt lat="47.13927" lon="6.8191">
        <ele>644</ele>
        <time>2020-06-21T21:19:32Z</time>
      </trkpt>
      <trkpt lat="47.13939" lon="6.81914">
        <ele>643</ele>
        <time>2020-06-21T21:19:35Z</time>
      </trkpt>
      <trkpt lat="47.13956" lon="6.81933">
        <ele>646</ele>
        <time>2020-06-21T21:19:40Z</time>
      </trkpt>
      <trkpt lat="47.1396" lon="6.81947">
        <ele>649</ele>
        <time>2020-06-21T21:19:43Z</time>
      </trkpt>
      <trkpt lat="47.13967" lon="6.81958">
        <ele>650</ele>
        <time>2020-06-21T21:19:45Z</time>
      </trkpt>
      <trkpt lat="47.13977" lon="6.81962">
        <ele>648</ele>
        <time>2020-06-21T21:19:47Z</time>
      </trkpt>
      <trkpt lat="47.13985" lon="6.81952">
        <ele>645</ele>
        <time>2020-06-21T21:19:50Z</time>
      </trkpt>
      <trkpt lat="47.13992" lon="6.81963">
        <ele>645</ele>
        <time>2020-06-21T21:19:52Z</time>
      </trkpt>
      <trkpt lat="47.14004" lon="6.82026">
        <ele>652</ele>
        <time>2020-06-21T21:20:03Z</time>
      </trkpt>
      <trkpt lat="47.14044" lon="6.82167">
        <ele>658</ele>
        <time>2020-06-21T21:20:27Z</time>
      </trkpt>
      <trkpt lat="47.14082" lon="6.82259">
        <ele>646</ele>
        <time>2020-06-21T21:20:44Z</time>
      </trkpt>
      <trkpt lat="47.141" lon="6.82315">
        <ele>653</ele>
        <time>2020-06-21T21:20:54Z</time>
      </trkpt>
      <trkpt lat="47.14102" lon="6.8233">
        <ele>654</ele>
        <time>2020-06-21T21:20:56Z</time>
      </trkpt>
      <trkpt lat="47.14138" lon="6.82397">
        <ele>649</ele>
        <time>2020-06-21T21:21:10Z</time>
      </trkpt>
      <trkpt lat="47.14137" lon="6.82427">
        <ele>653</ele>
        <time>2020-06-21T21:21:15Z</time>
      </trkpt>
      <trkpt lat="47.14147" lon="6.82434">
        <ele>650</ele>
        <time>2020-06-21T21:21:17Z</time>
      </trkpt>
      <trkpt lat="47.1415" lon="6.8245">
        <ele>652</ele>
        <time>2020-06-21T21:21:20Z</time>
      </trkpt>
      <trkpt lat="47.1416" lon="6.82454">
        <ele>648</ele>
        <time>2020-06-21T21:21:22Z</time>
      </trkpt>
      <trkpt lat="47.14178" lon="6.82475">
        <ele>647</ele>
        <time>2020-06-21T21:21:28Z</time>
      </trkpt>
      <trkpt lat="47.14194" lon="6.82517">
        <ele>651</ele>
        <time>2020-06-21T21:21:35Z</time>
      </trkpt>
      <trkpt lat="47.14206" lon="6.82525">
        <ele>650</ele>
        <time>2020-06-21T21:21:38Z</time>
      </trkpt>
      <trkpt lat="47.14217" lon="6.82519">
        <ele>645</ele>
        <time>2020-06-21T21:21:41Z</time>
      </trkpt>
      <trkpt lat="47.14238" lon="6.82527">
        <ele>640</ele>
        <time>2020-06-21T21:21:46Z</time>
      </trkpt>
      <trkpt lat="47.14275" lon="6.82571">
        <ele>639</ele>
        <time>2020-06-21T21:21:57Z</time>
      </trkpt>
      <trkpt lat="47.1431" lon="6.82601">
        <ele>638</ele>
        <time>2020-06-21T21:22:07Z</time>
      </trkpt>
      <trkpt lat="47.14376" lon="6.82642">
        <ele>637</ele>
        <time>2020-06-21T21:22:23Z</time>
      </trkpt>
      <trkpt lat="47.14401" lon="6.82661">
        <ele>635</ele>
        <time>2020-06-21T21:22:30Z</time>
      </trkpt>
      <trkpt lat="47.14419" lon="6.82666">
        <ele>633</ele>
        <time>2020-06-21T21:22:34Z</time>
      </trkpt>
      <trkpt lat="47.14445" lon="6.82687">
        <ele>636</ele>
        <time>2020-06-21T21:22:41Z</time>
      </trkpt>
      <trkpt lat="47.14461" lon="6.82694">
        <ele>635</ele>
        <time>2020-06-21T21:22:45Z</time>
      </trkpt>
      <trkpt lat="47.14486" lon="6.82711">
        <ele>634</ele>
        <time>2020-06-21T21:22:52Z</time>
      </trkpt>
      <trkpt lat="47.14494" lon="6.82712">
        <ele>632</ele>
        <time>2020-06-21T21:22:53Z</time>
      </trkpt>
      <trkpt lat="47.14516" lon="6.82726">
        <ele>632</ele>
        <time>2020-06-21T21:22:59Z</time>
      </trkpt>
      <trkpt lat="47.14526" lon="6.82737">
        <ele>633</ele>
        <time>2020-06-21T21:23:02Z</time>
      </trkpt>
      <trkpt lat="47.14561" lon="6.82793">
        <ele>635</ele>
        <time>2020-06-21T21:23:14Z</time>
      </trkpt>
      <trkpt lat="47.14569" lon="6.82801">
        <ele>633</ele>
        <time>2020-06-21T21:23:16Z</time>
      </trkpt>
      <trkpt lat="47.14571" lon="6.82817">
        <ele>634</ele>
        <time>2020-06-21T21:23:19Z</time>
      </trkpt>
      <trkpt lat="47.14568" lon="6.8289">
        <ele>645</ele>
        <time>2020-06-21T21:23:31Z</time>
      </trkpt>
      <trkpt lat="47.14571" lon="6.82964">
        <ele>652</ele>
        <time>2020-06-21T21:23:42Z</time>
      </trkpt>
      <trkpt lat="47.14568" lon="6.83015">
        <ele>662</ele>
        <time>2020-06-21T21:23:50Z</time>
      </trkpt>
      <trkpt lat="47.14576" lon="6.83046">
        <ele>663</ele>
        <time>2020-06-21T21:23:56Z</time>
      </trkpt>
      <trkpt lat="47.14585" lon="6.83061">
        <ele>660</ele>
        <time>2020-06-21T21:23:59Z</time>
      </trkpt>
      <trkpt lat="47.14599" lon="6.83074">
        <ele>658</ele>
        <time>2020-06-21T21:24:03Z</time>
      </trkpt>
      <trkpt lat="47.14637" lon="6.83136">
        <ele>655</ele>
        <time>2020-06-21T21:24:16Z</time>
      </trkpt>
      <trkpt lat="47.14656" lon="6.83151">
        <ele>647</ele>
        <time>2020-06-21T21:24:21Z</time>
      </trkpt>
      <trkpt lat="47.14667" lon="6.83193">
        <ele>650</ele>
        <time>2020-06-21T21:24:28Z</time>
      </trkpt>
      <trkpt lat="47.14685" lon="6.83233">
        <ele>655</ele>
        <time>2020-06-21T21:24:36Z</time>
      </trkpt>
      <trkpt lat="47.14702" lon="6.83282">
        <ele>657</ele>
        <time>2020-06-21T21:24:45Z</time>
      </trkpt>
      <trkpt lat="47.14709" lon="6.83315">
        <ele>659</ele>
        <time>2020-06-21T21:24:50Z</time>
      </trkpt>
      <trkpt lat="47.14716" lon="6.83331">
        <ele>657</ele>
        <time>2020-06-21T21:24:53Z</time>
      </trkpt>
      <trkpt lat="47.14729" lon="6.83382">
        <ele>656</ele>
        <time>2020-06-21T21:25:02Z</time>
      </trkpt>
      <trkpt lat="47.14747" lon="6.83423">
        <ele>649</ele>
        <time>2020-06-21T21:25:09Z</time>
      </trkpt>
      <trkpt lat="47.14766" lon="6.83443">
        <ele>648</ele>
        <time>2020-06-21T21:25:15Z</time>
      </trkpt>
      <trkpt lat="47.14781" lon="6.83466">
        <ele>648</ele>
        <time>2020-06-21T21:25:20Z</time>
      </trkpt>
      <trkpt lat="47.14794" lon="6.83493">
        <ele>647</ele>
        <time>2020-06-21T21:25:25Z</time>
      </trkpt>
      <trkpt lat="47.14803" lon="6.83505">
        <ele>645</ele>
        <time>2020-06-21T21:25:28Z</time>
      </trkpt>
      <trkpt lat="47.14807" lon="6.83518">
        <ele>645</ele>
        <time>2020-06-21T21:25:30Z</time>
      </trkpt>
      <trkpt lat="47.148" lon="6.83563">
        <ele>653</ele>
        <time>2020-06-21T21:25:38Z</time>
      </trkpt>
      <trkpt lat="47.14812" lon="6.83606">
        <ele>653</ele>
        <time>2020-06-21T21:25:45Z</time>
      </trkpt>
      <trkpt lat="47.14811" lon="6.83652">
        <ele>661</ele>
        <time>2020-06-21T21:25:52Z</time>
      </trkpt>
      <trkpt lat="47.14814" lon="6.83681">
        <ele>664</ele>
        <time>2020-06-21T21:25:57Z</time>
      </trkpt>
      <trkpt lat="47.14819" lon="6.83695">
        <ele>663</ele>
        <time>2020-06-21T21:26:00Z</time>
      </trkpt>
      <trkpt lat="47.14826" lon="6.83743">
        <ele>665</ele>
        <time>2020-06-21T21:26:07Z</time>
      </trkpt>
      <trkpt lat="47.14834" lon="6.83756">
        <ele>662</ele>
        <time>2020-06-21T21:26:10Z</time>
      </trkpt>
      <trkpt lat="47.14837" lon="6.83774">
        <ele>663</ele>
        <time>2020-06-21T21:26:13Z</time>
      </trkpt>
      <trkpt lat="47.14867" lon="6.83837">
        <ele>654</ele>
        <time>2020-06-21T21:26:25Z</time>
      </trkpt>
      <trkpt lat="47.14871" lon="6.83855">
        <ele>655</ele>
        <time>2020-06-21T21:26:28Z</time>
      </trkpt>
      <trkpt lat="47.14871" lon="6.83872">
        <ele>657</ele>
        <time>2020-06-21T21:26:31Z</time>
      </trkpt>
      <trkpt lat="47.14868" lon="6.83887">
        <ele>661</ele>
        <time>2020-06-21T21:26:33Z</time>
      </trkpt>
      <trkpt lat="47.14883" lon="6.83931">
        <ele>659</ele>
        <time>2020-06-21T21:26:41Z</time>
      </trkpt>
      <trkpt lat="47.14886" lon="6.83946">
        <ele>659</ele>
        <time>2020-06-21T21:26:44Z</time>
      </trkpt>
      <trkpt lat="47.1488" lon="6.8396">
        <ele>664</ele>
        <time>2020-06-21T21:26:46Z</time>
      </trkpt>
      <trkpt lat="47.14877" lon="6.83977">
        <ele>668</ele>
        <time>2020-06-21T21:26:49Z</time>
      </trkpt>
      <trkpt lat="47.1487" lon="6.8399">
        <ele>673</ele>
        <time>2020-06-21T21:26:52Z</time>
      </trkpt>
      <trkpt lat="47.14866" lon="6.8401">
        <ele>678</ele>
        <time>2020-06-21T21:26:55Z</time>
      </trkpt>
      <trkpt lat="47.14868" lon="6.84019">
        <ele>679</ele>
        <time>2020-06-21T21:26:57Z</time>
      </trkpt>
      <trkpt lat="47.14919" lon="6.84053">
        <ele>662</ele>
        <time>2020-06-21T21:27:10Z</time>
      </trkpt>
      <trkpt lat="47.14935" lon="6.84078">
        <ele>665</ele>
        <time>2020-06-21T21:27:15Z</time>
      </trkpt>
      <trkpt lat="47.1494" lon="6.84092">
        <ele>669</ele>
        <time>2020-06-21T21:27:18Z</time>
      </trkpt>
      <trkpt lat="47.14944" lon="6.84126">
        <ele>684</ele>
        <time>2020-06-21T21:27:23Z</time>
      </trkpt>
      <trkpt lat="47.14955" lon="6.84137">
        <ele>686</ele>
        <time>2020-06-21T21:27:26Z</time>
      </trkpt>
      <trkpt lat="47.14985" lon="6.84142">
        <ele>679</ele>
        <time>2020-06-21T21:27:33Z</time>
      </trkpt>
      <trkpt lat="47.14998" lon="6.84138">
        <ele>673</ele>
        <time>2020-06-21T21:27:36Z</time>
      </trkpt>
      <trkpt lat="47.15054" lon="6.84105">
        <ele>662</ele>
        <time>2020-06-21T21:27:50Z</time>
      </trkpt>
      <trkpt lat="47.15098" lon="6.84097">
        <ele>664</ele>
        <time>2020-06-21T21:28:01Z</time>
      </trkpt>
      <trkpt lat="47.15159" lon="6.84068">
        <ele>664</ele>
        <time>2020-06-21T21:28:16Z</time>
      </trkpt>
      <trkpt lat="47.15176" lon="6.84047">
        <ele>656</ele>
        <time>2020-06-21T21:28:21Z</time>
      </trkpt>
      <trkpt lat="47.15211" lon="6.84021">
        <ele>642</ele>
        <time>2020-06-21T21:28:30Z</time>
      </trkpt>
      <trkpt lat="47.15236" lon="6.84023">
        <ele>642</ele>
        <time>2020-06-21T21:28:36Z</time>
      </trkpt>
      <trkpt lat="47.15248" lon="6.84035">
        <ele>647</ele>
        <time>2020-06-21T21:28:39Z</time>
      </trkpt>
      <trkpt lat="47.1529" lon="6.84094">
        <ele>656</ele>
        <time>2020-06-21T21:28:53Z</time>
      </trkpt>
      <trkpt lat="47.15314" lon="6.84142">
        <ele>662</ele>
        <time>2020-06-21T21:29:02Z</time>
      </trkpt>
      <trkpt lat="47.15384" lon="6.8425">
        <ele>658</ele>
        <time>2020-06-21T21:29:26Z</time>
      </trkpt>
      <trkpt lat="47.15421" lon="6.84315">
        <ele>650</ele>
        <time>2020-06-21T21:29:40Z</time>
      </trkpt>
      <trkpt lat="47.15455" lon="6.84387">
        <ele>650</ele>
        <time>2020-06-21T21:29:53Z</time>
      </trkpt>
      <trkpt lat="47.1548" lon="6.84455">
        <ele>644</ele>
        <time>2020-06-21T21:30:06Z</time>
      </trkpt>
      <trkpt lat="47.15493" lon="6.84451">
        <ele>633</ele>
        <time>2020-06-21T21:30:09Z</time>
      </trkpt>
      <trkpt lat="47.15522" lon="6.84426">
        <ele>632</ele>
        <time>2020-06-21T21:30:17Z</time>
      </trkpt>
      <trkpt lat="47.15529" lon="6.84425">
        <ele>634</ele>
        <time>2020-06-21T21:30:18Z</time>
      </trkpt>
      <trkpt lat="47.15536" lon="6.8446">
        <ele>636</ele>
        <time>2020-06-21T21:30:24Z</time>
      </trkpt>
      <trkpt lat="47.15546" lon="6.84492">
        <ele>637</ele>
        <time>2020-06-21T21:30:30Z</time>
      </trkpt>
      <trkpt lat="47.15567" lon="6.8453">
        <ele>635</ele>
        <time>2020-06-21T21:30:38Z</time>
      </trkpt>
      <trkpt lat="47.15592" lon="6.84603">
        <ele>633</ele>
        <time>2020-06-21T21:30:51Z</time>
      </trkpt>
      <trkpt lat="47.15596" lon="6.84672">
        <ele>632</ele>
        <time>2020-06-21T21:31:02Z</time>
      </trkpt>
      <trkpt lat="47.15595" lon="6.8473">
        <ele>629</ele>
        <time>2020-06-21T21:31:11Z</time>
      </trkpt>
      <trkpt lat="47.15612" lon="6.84778">
        <ele>638</ele>
        <time>2020-06-21T21:31:19Z</time>
      </trkpt>
      <trkpt lat="47.15632" lon="6.84819">
        <ele>644</ele>
        <time>2020-06-21T21:31:27Z</time>
      </trkpt>
      <trkpt lat="47.15632" lon="6.8485">
        <ele>639</ele>
        <time>2020-06-21T21:31:32Z</time>
      </trkpt>
      <trkpt lat="47.1564" lon="6.84884">
        <ele>633</ele>
        <time>2020-06-21T21:31:38Z</time>
      </trkpt>
      <trkpt lat="47.15673" lon="6.8493">
        <ele>629</ele>
        <time>2020-06-21T21:31:49Z</time>
      </trkpt>
      <trkpt lat="47.15689" lon="6.84944">
        <ele>632</ele>
        <time>2020-06-21T21:31:53Z</time>
      </trkpt>
      <trkpt lat="47.15748" lon="6.8498">
        <ele>637</ele>
        <time>2020-06-21T21:32:08Z</time>
      </trkpt>
      <trkpt lat="47.1577" lon="6.84991">
        <ele>638</ele>
        <time>2020-06-21T21:32:13Z</time>
      </trkpt>
      <trkpt lat="47.15808" lon="6.85025">
        <ele>635</ele>
        <time>2020-06-21T21:32:24Z</time>
      </trkpt>
      <trkpt lat="47.15825" lon="6.85049">
        <ele>630</ele>
        <time>2020-06-21T21:32:29Z</time>
      </trkpt>
      <trkpt lat="47.15858" lon="6.85064">
        <ele>634</ele>
        <time>2020-06-21T21:32:37Z</time>
      </trkpt>
      <trkpt lat="47.15896" lon="6.85101">
        <ele>634</ele>
        <time>2020-06-21T21:32:48Z</time>
      </trkpt>
      <trkpt lat="47.15924" lon="6.8511">
        <ele>640</ele>
        <time>2020-06-21T21:32:55Z</time>
      </trkpt>
      <trkpt lat="47.15939" lon="6.85124">
        <ele>645</ele>
        <time>2020-06-21T21:32:59Z</time>
      </trkpt>
      <trkpt lat="47.15945" lon="6.85135">
        <ele>644</ele>
        <time>2020-06-21T21:33:01Z</time>
      </trkpt>
      <trkpt lat="47.15959" lon="6.85147">
        <ele>647</ele>
        <time>2020-06-21T21:33:05Z</time>
      </trkpt>
      <trkpt lat="47.15972" lon="6.85163">
        <ele>647</ele>
        <time>2020-06-21T21:33:09Z</time>
      </trkpt>
      <trkpt lat="47.16016" lon="6.85248">
        <ele>636</ele>
        <time>2020-06-21T21:33:26Z</time>
      </trkpt>
      <trkpt lat="47.16032" lon="6.85263">
        <ele>643</ele>
        <time>2020-06-21T21:33:30Z</time>
      </trkpt>
      <trkpt lat="47.16052" lon="6.85276">
        <ele>650</ele>
        <time>2020-06-21T21:33:35Z</time>
      </trkpt>
      <trkpt lat="47.16079" lon="6.85312">
        <ele>646</ele>
        <time>2020-06-21T21:33:44Z</time>
      </trkpt>
      <trkpt lat="47.16088" lon="6.85331">
        <ele>639</ele>
        <time>2020-06-21T21:33:47Z</time>
      </trkpt>
      <trkpt lat="47.16108" lon="6.85355">
        <ele>643</ele>
        <time>2020-06-21T21:33:53Z</time>
      </trkpt>
      <trkpt lat="47.16146" lon="6.85422">
        <ele>641</ele>
        <time>2020-06-21T21:34:07Z</time>
      </trkpt>
      <trkpt lat="47.16158" lon="6.85451">
        <ele>638</ele>
        <time>2020-06-21T21:34:13Z</time>
      </trkpt>
      <trkpt lat="47.16183" lon="6.85485">
        <ele>632</ele>
        <time>2020-06-21T21:34:21Z</time>
      </trkpt>
      <trkpt lat="47.162" lon="6.85498">
        <ele>631</ele>
        <time>2020-06-21T21:34:25Z</time>
      </trkpt>
      <trkpt lat="47.16211" lon="6.85497">
        <ele>633</ele>
        <time>2020-06-21T21:34:28Z</time>
      </trkpt>
      <trkpt lat="47.16221" lon="6.85506">
        <ele>634</ele>
        <time>2020-06-21T21:34:30Z</time>
      </trkpt>
      <trkpt lat="47.16254" lon="6.85521">
        <ele>636</ele>
        <time>2020-06-21T21:34:38Z</time>
      </trkpt>
      <trkpt lat="47.16266" lon="6.85523">
        <ele>636</ele>
        <time>2020-06-21T21:34:41Z</time>
      </trkpt>
      <trkpt lat="47.16322" lon="6.8555">
        <ele>633</ele>
        <time>2020-06-21T21:34:55Z</time>
      </trkpt>
      <trkpt lat="47.16335" lon="6.85563">
        <ele>632</ele>
        <time>2020-06-21T21:34:59Z</time>
      </trkpt>
      <trkpt lat="47.16365" lon="6.85603">
        <ele>624</ele>
        <time>2020-06-21T21:35:08Z</time>
      </trkpt>
      <trkpt lat="47.16391" lon="6.85629">
        <ele>621</ele>
        <time>2020-06-21T21:35:16Z</time>
      </trkpt>
      <trkpt lat="47.16393" lon="6.85636">
        <ele>620</ele>
        <time>2020-06-21T21:35:17Z</time>
      </trkpt>
      <trkpt lat="47.16407" lon="6.85648">
        <ele>619</ele>
        <time>2020-06-21T21:35:21Z</time>
      </trkpt>
      <trkpt lat="47.16417" lon="6.85602">
        <ele>620</ele>
        <time>2020-06-21T21:35:28Z</time>
      </trkpt>
      <trkpt lat="47.16427" lon="6.85598">
        <ele>619</ele>
        <time>2020-06-21T21:35:31Z</time>
      </trkpt>
      <trkpt lat="47.16434" lon="6.85609">
        <ele>618</ele>
        <time>2020-06-21T21:35:33Z</time>
      </trkpt>
      <trkpt lat="47.16439" lon="6.85637">
        <ele>617</ele>
        <time>2020-06-21T21:35:38Z</time>
      </trkpt>
    </trkseg>
  </trk>
</gpx>